Wetterdaten: Freitag, 04.10.2019
Datum Zeit Temp. Aussen Temp. o. S. +5cm Feuchte Auss Luftdruck Regen Sonnenschein Regendauer Solar Windben Empfang
04.10.2019 00:00 10,7 C 10,0 C 0,0 C 91 % 1014,8 hPa 0,0 l/m 0 min 0 min 0 W/m 3,2 km/h (1 Bft) 95,74 %
04.10.2019 00:02 10,7 C 10,0 C 0,0 C 91 % 1014,8 hPa 0,0 l/m 0 min 0 min 0 W/m 6,4 km/h (2 Bft) 100,00 %
04.10.2019 00:04 10,7 C 10,0 C 0,0 C 91 % 1014,8 hPa 0,0 l/m 0 min 0 min 0 W/m 12,9 km/h (3 Bft) 100,00 %
04.10.2019 00:08 10,7 C 10,0 C 0,0 C 92 % 1014,8 hPa 0,0 l/m 0 min 0 min 0 W/m 6,4 km/h (2 Bft) 97,87 %
04.10.2019 00:10 10,7 C 10,0 C 0,0 C 92 % 1014,7 hPa 0,0 l/m 0 min 0 min 0 W/m 6,4 km/h (2 Bft) 97,83 %
04.10.2019 00:12 10,6 C 10,0 C 0,0 C 92 % 1014,7 hPa 0,0 l/m 0 min 0 min 0 W/m 6,4 km/h (2 Bft) 97,87 %
04.10.2019 00:14 10,6 C 9,4 C 0,0 C 92 % 1014,6 hPa 0,0 l/m 0 min 0 min 0 W/m 6,4 km/h (2 Bft) 97,87 %
04.10.2019 00:16 10,6 C 9,4 C 0,0 C 92 % 1014,7 hPa 0,0 l/m 0 min 0 min 0 W/m 3,2 km/h (1 Bft) 97,87 %
04.10.2019 00:18 10,6 C 9,4 C 0,0 C 92 % 1014,7 hPa 0,0 l/m 0 min 0 min 0 W/m 6,4 km/h (2 Bft) 93,62 %
04.10.2019 00:20 10,6 C 10,0 C 0,0 C 92 % 1014,9 hPa 0,0 l/m 0 min 0 min 0 W/m 6,4 km/h (2 Bft) 97,87 %
04.10.2019 00:22 10,6 C 10,0 C 0,0 C 92 % 1014,9 hPa 0,0 l/m 0 min 0 min 0 W/m 3,2 km/h (1 Bft) 97,83 %
04.10.2019 00:24 10,6 C 10,0 C 0,0 C 92 % 1014,9 hPa 0,0 l/m 0 min 0 min 0 W/m 3,2 km/h (1 Bft) 97,87 %
04.10.2019 00:26 10,6 C 10,0 C 0,0 C 92 % 1014,9 hPa 0,0 l/m 0 min 0 min 0 W/m 6,4 km/h (2 Bft) 97,87 %
04.10.2019 00:28 10,6 C 10,0 C 0,0 C 92 % 1014,9 hPa 0,0 l/m 0 min 0 min 0 W/m 3,2 km/h (1 Bft) 97,87 %
04.10.2019 00:30 10,6 C 9,4 C 0,0 C 92 % 1014,8 hPa 0,0 l/m 0 min 0 min 0 W/m 3,2 km/h (1 Bft) 97,87 %
04.10.2019 00:32 10,6 C 9,4 C 0,0 C 92 % 1014,7 hPa 0,0 l/m 0 min 0 min 0 W/m 3,2 km/h (1 Bft) 97,83 %
04.10.2019 00:34 10,6 C 9,4 C 0,0 C 92 % 1014,7 hPa 0,0 l/m 0 min 0 min 0 W/m 3,2 km/h (1 Bft) 97,87 %
04.10.2019 00:36 10,6 C 10,0 C 0,0 C 92 % 1014,8 hPa 0,0 l/m 0 min 0 min 0 W/m 3,2 km/h (1 Bft) 95,74 %
04.10.2019 00:38 10,6 C 10,0 C 0,0 C 92 % 1014,7 hPa 0,0 l/m 0 min 0 min 0 W/m 6,4 km/h (2 Bft) 98,11 %
04.10.2019 00:40 10,6 C 10,0 C 0,0 C 92 % 1014,7 hPa 0,0 l/m 0 min 0 min 0 W/m 6,4 km/h (2 Bft) 97,87 %
04.10.2019 00:42 10,6 C 10,0 C 0,0 C 92 % 1014,7 hPa 0,0 l/m 0 min 0 min 0 W/m 12,9 km/h (3 Bft) 97,87 %
04.10.2019 00:44 10,6 C 10,0 C 0,0 C 92 % 1014,7 hPa 0,0 l/m 0 min 0 min 0 W/m 3,2 km/h (1 Bft) 97,87 %
04.10.2019 00:46 10,6 C 10,0 C 0,0 C 92 % 1014,7 hPa 0,0 l/m 0 min 0 min 0 W/m 12,9 km/h (3 Bft) 97,83 %
04.10.2019 00:48 10,5 C 10,0 C 0,0 C 92 % 1014,7 hPa 0,0 l/m 0 min 0 min 0 W/m 3,2 km/h (1 Bft) 97,87 %
04.10.2019 00:50 10,6 C 10,0 C 0,0 C 92 % 1014,7 hPa 0,0 l/m 0 min 0 min 0 W/m 3,2 km/h (1 Bft) 97,87 %
04.10.2019 00:52 10,5 C 10,0 C 0,0 C 92 % 1014,6 hPa 0,0 l/m 0 min 0 min 0 W/m 6,4 km/h (2 Bft) 97,87 %
04.10.2019 00:54 10,5 C 10,0 C 0,0 C 92 % 1014,7 hPa 0,0 l/m 0 min 0 min 0 W/m 6,4 km/h (2 Bft) 93,62 %
04.10.2019 00:56 10,5 C 10,0 C 0,0 C 92 % 1014,6 hPa 0,0 l/m 0 min 0 min 0 W/m 6,4 km/h (2 Bft) 97,87 %
04.10.2019 00:58 10,5 C 10,0 C 0,0 C 92 % 1014,6 hPa 0,0 l/m 0 min 0 min 0 W/m 6,4 km/h (2 Bft) 97,83 %
04.10.2019 01:00 10,5 C 10,0 C 0,0 C 92 % 1014,4 hPa 0,0 l/m 0 min 0 min 0 W/m 3,2 km/h (1 Bft) 95,74 %
04.10.2019 01:02 10,5 C 10,0 C 0,0 C 92 % 1014,3 hPa 0,0 l/m 0 min 0 min 0 W/m 6,4 km/h (2 Bft) 97,87 %
04.10.2019 01:04 10,5 C 10,0 C 0,0 C 92 % 1014,2 hPa 0,0 l/m 0 min 0 min 0 W/m 6,4 km/h (2 Bft) 97,87 %
04.10.2019 01:06 10,5 C 10,0 C 0,0 C 92 % 1014,2 hPa 0,0 l/m 0 min 0 min 0 W/m 6,4 km/h (2 Bft) 97,87 %
04.10.2019 01:08 10,5 C 10,0 C 0,0 C 92 % 1014,2 hPa 0,0 l/m 0 min 0 min 0 W/m 6,4 km/h (2 Bft) 97,83 %
04.10.2019 01:10 10,5 C 9,4 C 0,0 C 92 % 1014,2 hPa 0,0 l/m 0 min 0 min 0 W/m 0,0 km/h (0 Bft) 97,87 %
04.10.2019 01:12 10,5 C 9,4 C 0,0 C 92 % 1014,2 hPa 0,0 l/m 0 min 0 min 0 W/m 0,0 km/h (0 Bft) 61,70 %
04.10.2019 01:14 10,5 C 9,4 C 0,0 C 92 % 1014,2 hPa 0,0 l/m 0 min 0 min 0 W/m 0,0 km/h (0 Bft) 87,10 %
04.10.2019 01:16 10,5 C 9,4 C 0,0 C 92 % 1014,2 hPa 0,0 l/m 0 min 0 min 0 W/m 0,0 km/h (0 Bft) 95,74 %
04.10.2019 01:18 10,5 C 9,4 C 0,0 C 92 % 1014,3 hPa 0,0 l/m 0 min 0 min 0 W/m 3,2 km/h (1 Bft) 97,87 %
04.10.2019 01:20 10,5 C 9,4 C 0,0 C 92 % 1014,4 hPa 0,0 l/m 0 min 0 min 0 W/m 0,0 km/h (0 Bft) 97,83 %
04.10.2019 01:22 10,5 C 9,4 C 0,0 C 92 % 1014,4 hPa 0,0 l/m 0 min 0 min 0 W/m 3,2 km/h (1 Bft) 97,87 %
04.10.2019 01:24 10,5 C 9,4 C 0,0 C 92 % 1014,3 hPa 0,0 l/m 0 min 0 min 0 W/m 3,2 km/h (1 Bft) 97,87 %
04.10.2019 01:26 10,5 C 9,4 C 0,0 C 92 % 1014,2 hPa 0,0 l/m 0 min 0 min 0 W/m 3,2 km/h (1 Bft) 97,87 %
04.10.2019 01:28 10,4 C 9,4 C 0,0 C 92 % 1014,1 hPa 0,0 l/m 0 min 0 min 0 W/m 12,9 km/h (3 Bft) 97,87 %
04.10.2019 01:30 10,4 C 9,4 C 0,0 C 92 % 1013,9 hPa 0,0 l/m 0 min 0 min 0 W/m 3,2 km/h (1 Bft) 97,87 %
04.10.2019 01:32 10,4 C 9,4 C 0,0 C 92 % 1013,8 hPa 0,0 l/m 0 min 0 min 0 W/m 3,2 km/h (1 Bft) 97,83 %
04.10.2019 01:34 10,4 C 9,4 C 0,0 C 92 % 1013,7 hPa 0,0 l/m 0 min 0 min 0 W/m 6,4 km/h (2 Bft) 95,74 %
04.10.2019 01:36 10,4 C 9,4 C 0,0 C 92 % 1013,6 hPa 0,0 l/m 0 min 0 min 0 W/m 3,2 km/h (1 Bft) 97,87 %
04.10.2019 01:38 10,4 C 9,4 C 0,0 C 92 % 1013,6 hPa 0,0 l/m 0 min 0 min 0 W/m 12,9 km/h (3 Bft) 98,00 %
04.10.2019 01:40 10,4 C 9,4 C 0,0 C 92 % 1013,6 hPa 0,0 l/m 0 min 0 min 0 W/m 3,2 km/h (1 Bft) 95,74 %
04.10.2019 01:42 10,4 C 9,4 C 0,0 C 92 % 1013,6 hPa 0,0 l/m 0 min 0 min 0 W/m 6,4 km/h (2 Bft) 100,00 %
04.10.2019 01:44 10,4 C 9,4 C 0,0 C 92 % 1013,7 hPa 0,0 l/m 0 min 0 min 0 W/m 6,4 km/h (2 Bft) 97,87 %
04.10.2019 01:46 10,4 C 9,4 C 0,0 C 92 % 1013,8 hPa 0,0 l/m 0 min 0 min 0 W/m 3,2 km/h (1 Bft) 97,87 %
04.10.2019 01:48 10,4 C 9,4 C 0,0 C 92 % 1013,8 hPa 0,0 l/m 0 min 0 min 0 W/m 0,0 km/h (0 Bft) 95,74 %
04.10.2019 01:50 10,4 C 9,4 C 0,0 C 92 % 1013,8 hPa 0,0 l/m 0 min 0 min 0 W/m 3,2 km/h (1 Bft) 93,62 %
04.10.2019 01:52 10,4 C 9,4 C 0,0 C 92 % 1013,7 hPa 0,0 l/m 0 min 0 min 0 W/m 3,2 km/h (1 Bft) 95,74 %
04.10.2019 01:54 10,4 C 9,4 C 0,0 C 92 % 1013,6 hPa 0,0 l/m 0 min 0 min 0 W/m 3,2 km/h (1 Bft) 97,83 %
04.10.2019 01:56 10,3 C 9,4 C 0,0 C 92 % 1013,5 hPa 0,0 l/m 0 min 0 min 0 W/m 3,2 km/h (1 Bft) 97,87 %
04.10.2019 01:58 10,3 C 9,4 C 0,0 C 92 % 1013,4 hPa 0,0 l/m 0 min 0 min 0 W/m 6,4 km/h (2 Bft) 95,74 %
04.10.2019 02:00 10,3 C 9,4 C 0,0 C 92 % 1013,4 hPa 0,0 l/m 0 min 0 min 0 W/m 3,2 km/h (1 Bft) 95,74 %
04.10.2019 02:02 10,3 C 9,4 C 0,0 C 92 % 1013,4 hPa 0,0 l/m 0 min 0 min 0 W/m 3,2 km/h (1 Bft) 97,87 %
04.10.2019 02:04 10,3 C 9,4 C 0,0 C 92 % 1013,3 hPa 0,0 l/m 0 min 0 min 0 W/m 6,4 km/h (2 Bft) 97,87 %
04.10.2019 02:06 10,3 C 9,4 C 0,0 C 92 % 1013,3 hPa 0,0 l/m 0 min 0 min 0 W/m 6,4 km/h (2 Bft) 97,83 %
04.10.2019 02:08 10,3 C 9,4 C 0,0 C 92 % 1013,3 hPa 0,0 l/m 0 min 0 min 0 W/m 6,4 km/h (2 Bft) 97,87 %
04.10.2019 02:10 10,3 C 9,4 C 0,0 C 92 % 1013,3 hPa 0,0 l/m 0 min 0 min 0 W/m 3,2 km/h (1 Bft) 97,87 %
04.10.2019 02:12 10,3 C 9,4 C 0,0 C 92 % 1013,4 hPa 0,0 l/m 0 min 0 min 0 W/m 3,2 km/h (1 Bft) 95,74 %
04.10.2019 02:14 10,3 C 9,4 C 0,0 C 92 % 1013,5 hPa 0,0 l/m 0 min 0 min 0 W/m 3,2 km/h (1 Bft) 97,87 %
04.10.2019 02:16 10,3 C 9,4 C 0,0 C 92 % 1013,4 hPa 0,0 l/m 0 min 0 min 0 W/m 6,4 km/h (2 Bft) 97,87 %
04.10.2019 02:18 10,3 C 9,4 C 0,0 C 92 % 1013,5 hPa 0,0 l/m 0 min 0 min 0 W/m 3,2 km/h (1 Bft) 97,83 %
04.10.2019 02:20 10,3 C 9,4 C 0,0 C 92 % 1013,4 hPa 0,0 l/m 0 min 0 min 0 W/m 3,2 km/h (1 Bft) 97,87 %
04.10.2019 02:22 10,2 C 9,4 C 0,0 C 93 % 1013,4 hPa 0,0 l/m 0 min 0 min 0 W/m 3,2 km/h (1 Bft) 97,87 %
04.10.2019 02:24 10,2 C 9,4 C 0,0 C 93 % 1013,4 hPa 0,0 l/m 0 min 0 min 0 W/m 6,4 km/h (2 Bft) 97,87 %
04.10.2019 02:26 10,2 C 9,4 C 0,0 C 93 % 1013,4 hPa 0,0 l/m 0 min 0 min 0 W/m 6,4 km/h (2 Bft) 97,87 %
04.10.2019 02:28 10,2 C 9,4 C 0,0 C 93 % 1013,4 hPa 0,0 l/m 0 min 0 min 0 W/m 3,2 km/h (1 Bft) 97,87 %
04.10.2019 02:30 10,2 C 9,4 C 0,0 C 93 % 1013,4 hPa 0,0 l/m 0 min 0 min 0 W/m 0,0 km/h (0 Bft) 97,83 %
04.10.2019 02:32 10,2 C 9,4 C 0,0 C 92 % 1013,4 hPa 0,0 l/m 0 min 0 min 0 W/m 12,9 km/h (3 Bft) 97,87 %
04.10.2019 02:34 10,2 C 9,4 C 0,0 C 92 % 1013,3 hPa 0,0 l/m 0 min 0 min 0 W/m 3,2 km/h (1 Bft) 95,74 %
04.10.2019 02:36 10,2 C 9,4 C 0,0 C 92 % 1013,1 hPa 0,0 l/m 0 min 0 min 0 W/m 3,2 km/h (1 Bft) 97,87 %
04.10.2019 02:38 10,2 C 9,4 C 0,0 C 92 % 1013,0 hPa 0,0 l/m 0 min 0 min 0 W/m 6,4 km/h (2 Bft) 97,87 %
04.10.2019 02:40 10,2 C 9,4 C 0,0 C 92 % 1013,0 hPa 0,0 l/m 0 min 0 min 0 W/m 6,4 km/h (2 Bft) 97,87 %
04.10.2019 02:42 10,2 C 9,4 C 0,0 C 92 % 1012,9 hPa 0,0 l/m 0 min 0 min 0 W/m 16,1 km/h (3 Bft) 97,83 %
04.10.2019 02:44 10,1 C 9,4 C 0,0 C 92 % 1012,9 hPa 0,0 l/m 0 min 0 min 0 W/m 3,2 km/h (1 Bft) 95,74 %
04.10.2019 02:46 10,1 C 9,4 C 0,0 C 92 % 1012,8 hPa 0,0 l/m 0 min 0 min 0 W/m 3,2 km/h (1 Bft) 100,00 %
04.10.2019 02:48 10,1 C 9,4 C 0,0 C 92 % 1012,8 hPa 0,0 l/m 0 min 0 min 0 W/m 3,2 km/h (1 Bft) 100,00 %
04.10.2019 02:50 10,1 C 9,4 C 0,0 C 92 % 1012,8 hPa 0,0 l/m 0 min 0 min 0 W/m 3,2 km/h (1 Bft) 100,00 %
04.10.2019 02:52 10,1 C 9,4 C 0,0 C 92 % 1012,8 hPa 0,0 l/m 0 min 0 min 0 W/m 6,4 km/h (2 Bft) 95,65 %
04.10.2019 02:54 10,1 C 9,4 C 0,0 C 92 % 1012,7 hPa 0,0 l/m 0 min 0 min 0 W/m 6,4 km/h (2 Bft) 97,87 %
04.10.2019 02:56 10,1 C 8,9 C 0,0 C 92 % 1012,6 hPa 0,0 l/m 0 min 0 min 0 W/m 3,2 km/h (1 Bft) 97,87 %
04.10.2019 02:58 10,1 C 8,9 C 0,0 C 92 % 1012,6 hPa 0,0 l/m 0 min 0 min 0 W/m 3,2 km/h (1 Bft) 97,87 %
04.10.2019 03:00 10,1 C 8,9 C 0,0 C 92 % 1012,5 hPa 0,0 l/m 0 min 0 min 0 W/m 3,2 km/h (1 Bft) 97,87 %
04.10.2019 03:02 10,1 C 8,9 C 0,0 C 92 % 1012,5 hPa 0,0 l/m 0 min 0 min 0 W/m 6,4 km/h (2 Bft) 97,87 %
04.10.2019 03:04 10,1 C 8,9 C 0,0 C 93 % 1012,4 hPa 0,0 l/m 0 min 0 min 0 W/m 3,2 km/h (1 Bft) 97,83 %
04.10.2019 03:06 10,1 C 8,9 C 0,0 C 93 % 1012,4 hPa 0,0 l/m 0 min 0 min 0 W/m 0,0 km/h (0 Bft) 97,87 %
04.10.2019 03:08 10,1 C 8,9 C 0,0 C 93 % 1012,4 hPa 0,0 l/m 0 min 0 min 0 W/m 3,2 km/h (1 Bft) 97,87 %
04.10.2019 03:10 10,1 C 8,9 C 0,0 C 93 % 1012,3 hPa 0,0 l/m 0 min 0 min 0 W/m 3,2 km/h (1 Bft) 97,87 %
04.10.2019 03:12 10,0 C 8,9 C 0,0 C 93 % 1012,2 hPa 0,0 l/m 0 min 0 min 0 W/m 3,2 km/h (1 Bft) 95,74 %
04.10.2019 03:14 10,0 C 8,9 C 0,0 C 93 % 1012,2 hPa 0,0 l/m 0 min 0 min 0 W/m 3,2 km/h (1 Bft) 97,87 %
04.10.2019 03:16 10,0 C 8,9 C 0,0 C 93 % 1012,2 hPa 0,0 l/m 0 min 0 min 0 W/m 6,4 km/h (2 Bft) 95,65 %
04.10.2019 03:18 10,0 C 8,9 C 0,0 C 93 % 1012,2 hPa 0,0 l/m 0 min 0 min 0 W/m 3,2 km/h (1 Bft) 97,87 %
04.10.2019 03:20 10,0 C 8,9 C 0,0 C 93 % 1012,2 hPa 0,0 l/m 0 min 0 min 0 W/m 3,2 km/h (1 Bft) 95,74 %
04.10.2019 03:22 9,9 C 8,9 C 0,0 C 93 % 1012,1 hPa 0,0 l/m 0 min 0 min 0 W/m 12,9 km/h (3 Bft) 97,87 %
04.10.2019 03:24 9,9 C 8,9 C 0,0 C 93 % 1012,0 hPa 0,0 l/m 0 min 0 min 0 W/m 3,2 km/h (1 Bft) 97,87 %
04.10.2019 03:26 9,9 C 8,9 C 0,0 C 93 % 1011,9 hPa 0,0 l/m 0 min 0 min 0 W/m 12,9 km/h (3 Bft) 97,87 %
04.10.2019 03:28 9,9 C 8,9 C 0,0 C 93 % 1011,8 hPa 0,0 l/m 0 min 0 min 0 W/m 12,9 km/h (3 Bft) 97,83 %
04.10.2019 03:30 9,9 C 8,9 C 0,0 C 93 % 1011,9 hPa 0,0 l/m 0 min 0 min 0 W/m 3,2 km/h (1 Bft) 95,74 %
04.10.2019 03:32 9,9 C 8,9 C 0,0 C 93 % 1011,8 hPa 0,0 l/m 0 min 0 min 0 W/m 6,4 km/h (2 Bft) 97,87 %
04.10.2019 03:34 9,9 C 8,9 C 0,0 C 93 % 1011,6 hPa 0,0 l/m 0 min 0 min 0 W/m 3,2 km/h (1 Bft) 95,74 %
04.10.2019 03:36 9,8 C 8,9 C 0,0 C 93 % 1011,6 hPa 0,0 l/m 0 min 0 min 0 W/m 6,4 km/h (2 Bft) 100,00 %
04.10.2019 03:38 9,8 C 8,9 C 0,0 C 93 % 1011,7 hPa 0,0 l/m 0 min 0 min 0 W/m 3,2 km/h (1 Bft) 97,96 %
04.10.2019 03:40 9,8 C 8,9 C 0,0 C 93 % 1011,7 hPa 0,0 l/m 0 min 0 min 0 W/m 6,4 km/h (2 Bft) 97,87 %
04.10.2019 03:42 9,8 C 8,9 C 0,0 C 93 % 1011,5 hPa 0,0 l/m 0 min 0 min 0 W/m 6,4 km/h (2 Bft) 97,87 %
04.10.2019 03:44 9,8 C 8,9 C 0,0 C 93 % 1011,5 hPa 0,0 l/m 0 min 0 min 0 W/m 6,4 km/h (2 Bft) 97,87 %
04.10.2019 03:46 9,8 C 8,9 C 0,0 C 93 % 1011,5 hPa 0,0 l/m 0 min 0 min 0 W/m 12,9 km/h (3 Bft) 97,87 %
04.10.2019 03:48 9,7 C 8,9 C 0,0 C 93 % 1011,5 hPa 0,0 l/m 0 min 0 min 0 W/m 6,4 km/h (2 Bft) 97,83 %
04.10.2019 03:50 9,7 C 8,9 C 0,0 C 93 % 1011,5 hPa 0,0 l/m 0 min 0 min 0 W/m 6,4 km/h (2 Bft) 95,74 %
04.10.2019 03:52 9,7 C 8,9 C 0,0 C 93 % 1011,4 hPa 0,0 l/m 0 min 0 min 0 W/m 6,4 km/h (2 Bft) 97,87 %
04.10.2019 03:54 9,7 C 8,9 C 0,0 C 93 % 1011,3 hPa 0,0 l/m 0 min 0 min 0 W/m 6,4 km/h (2 Bft) 97,87 %
04.10.2019 03:56 9,7 C 8,9 C 0,0 C 93 % 1011,3 hPa 0,0 l/m 0 min 0 min 0 W/m 3,2 km/h (1 Bft) 97,87 %
04.10.2019 03:58 9,6 C 8,9 C 0,0 C 93 % 1011,2 hPa 0,0 l/m 0 min 0 min 0 W/m 12,9 km/h (3 Bft) 97,87 %
04.10.2019 04:00 9,6 C 8,9 C 0,0 C 93 % 1011,1 hPa 0,0 l/m 0 min 0 min 0 W/m 6,4 km/h (2 Bft) 97,83 %
04.10.2019 04:02 9,6 C 8,9 C 0,0 C 93 % 1011,1 hPa 0,0 l/m 0 min 0 min 0 W/m 3,2 km/h (1 Bft) 100,00 %
04.10.2019 04:04 9,6 C 8,9 C 0,0 C 93 % 1011,1 hPa 0,0 l/m 0 min 0 min 0 W/m 6,4 km/h (2 Bft) 97,87 %
04.10.2019 04:06 9,6 C 8,9 C 0,0 C 93 % 1011,1 hPa 0,0 l/m 0 min 0 min 0 W/m 6,4 km/h (2 Bft) 97,87 %
04.10.2019 04:08 9,6 C 8,9 C 0,0 C 93 % 1011,2 hPa 0,0 l/m 0 min 0 min 0 W/m 6,4 km/h (2 Bft) 95,74 %
04.10.2019 04:10 9,6 C 8,9 C 0,0 C 93 % 1011,2 hPa 0,0 l/m 0 min 0 min 0 W/m 3,2 km/h (1 Bft) 97,87 %
04.10.2019 04:12 9,6 C 8,9 C 0,0 C 93 % 1011,2 hPa 0,0 l/m 0 min 0 min 0 W/m 6,4 km/h (2 Bft) 97,83 %
04.10.2019 04:14 9,6 C 8,9 C 0,0 C 93 % 1011,2 hPa 0,0 l/m 0 min 0 min 0 W/m 16,1 km/h (3 Bft) 97,87 %
04.10.2019 04:16 9,6 C 8,9 C 0,0 C 93 % 1011,2 hPa 0,0 l/m 0 min 0 min 0 W/m 3,2 km/h (1 Bft) 97,87 %
04.10.2019 04:18 9,5 C 8,9 C 0,0 C 93 % 1011,2 hPa 0,0 l/m 0 min 0 min 0 W/m 6,4 km/h (2 Bft) 97,87 %
04.10.2019 04:20 9,5 C 8,9 C 0,0 C 93 % 1011,3 hPa 0,0 l/m 0 min 0 min 0 W/m 12,9 km/h (3 Bft) 97,87 %
04.10.2019 04:22 9,5 C 8,9 C 0,0 C 93 % 1011,3 hPa 0,0 l/m 0 min 0 min 0 W/m 6,4 km/h (2 Bft) 97,83 %
04.10.2019 04:24 9,5 C 8,9 C 0,0 C 93 % 1011,3 hPa 0,0 l/m 0 min 0 min 0 W/m 3,2 km/h (1 Bft) 97,87 %
04.10.2019 04:26 9,5 C 8,9 C 0,0 C 93 % 1011,3 hPa 0,0 l/m 0 min 0 min 0 W/m 6,4 km/h (2 Bft) 97,87 %
04.10.2019 04:28 9,5 C 8,9 C 0,0 C 93 % 1011,3 hPa 0,0 l/m 0 min 0 min 0 W/m 6,4 km/h (2 Bft) 100,00 %
04.10.2019 04:30 9,5 C 8,9 C 0,0 C 93 % 1011,2 hPa 0,0 l/m 0 min 0 min 0 W/m 12,9 km/h (3 Bft) 95,74 %
04.10.2019 04:32 9,5 C 8,9 C 0,0 C 93 % 1011,2 hPa 0,0 l/m 0 min 0 min 0 W/m 6,4 km/h (2 Bft) 100,00 %
04.10.2019 04:34 9,5 C 8,9 C 0,0 C 93 % 1011,2 hPa 0,0 l/m 0 min 0 min 0 W/m 3,2 km/h (1 Bft) 100,00 %
04.10.2019 04:36 9,5 C 8,9 C 0,0 C 93 % 1011,0 hPa 0,0 l/m 0 min 0 min 0 W/m 6,4 km/h (2 Bft) 100,00 %
04.10.2019 04:38 9,5 C 8,9 C 0,0 C 93 % 1010,9 hPa 0,0 l/m 0 min 0 min 0 W/m 6,4 km/h (2 Bft) 100,00 %
04.10.2019 04:40 9,5 C 8,9 C 0,0 C 93 % 1010,8 hPa 0,0 l/m 0 min 0 min 0 W/m 6,4 km/h (2 Bft) 97,87 %
04.10.2019 04:42 9,5 C 8,9 C 0,0 C 93 % 1010,7 hPa 0,0 l/m 0 min 0 min 0 W/m 19,3 km/h (3 Bft) 97,87 %
04.10.2019 04:44 9,5 C 8,9 C 0,0 C 93 % 1010,5 hPa 0,0 l/m 0 min 0 min 0 W/m 16,1 km/h (3 Bft) 100,00 %
04.10.2019 04:46 9,5 C 8,9 C 0,0 C 93 % 1010,5 hPa 0,0 l/m 0 min 0 min 0 W/m 12,9 km/h (3 Bft) 100,00 %
04.10.2019 04:48 9,5 C 8,9 C 0,0 C 93 % 1010,4 hPa 0,0 l/m 0 min 0 min 0 W/m 16,1 km/h (3 Bft) 100,00 %
04.10.2019 04:50 9,5 C 8,9 C 0,0 C 93 % 1010,4 hPa 0,0 l/m 0 min 0 min 0 W/m 19,3 km/h (3 Bft) 100,00 %
04.10.2019 04:52 9,5 C 8,9 C 0,0 C 93 % 1010,4 hPa 0,0 l/m 0 min 0 min 0 W/m 19,3 km/h (3 Bft) 100,00 %
04.10.2019 04:54 9,5 C 8,9 C 0,0 C 92 % 1010,4 hPa 0,0 l/m 0 min 0 min 0 W/m 12,9 km/h (3 Bft) 100,00 %
04.10.2019 04:56 9,5 C 8,9 C 0,0 C 92 % 1010,3 hPa 0,0 l/m 0 min 0 min 0 W/m 16,1 km/h (3 Bft) 100,00 %
04.10.2019 04:58 9,5 C 8,9 C 0,0 C 92 % 1010,3 hPa 0,0 l/m 0 min 0 min 0 W/m 12,9 km/h (3 Bft) 100,00 %
04.10.2019 05:00 9,5 C 8,9 C 0,0 C 92 % 1010,3 hPa 0,0 l/m 0 min 0 min 0 W/m 6,4 km/h (2 Bft) 100,00 %
04.10.2019 05:02 9,5 C 8,9 C 0,0 C 92 % 1010,4 hPa 0,0 l/m 0 min 0 min 0 W/m 16,1 km/h (3 Bft) 100,00 %
04.10.2019 05:04 9,5 C 8,9 C 0,0 C 92 % 1010,3 hPa 0,0 l/m 0 min 0 min 0 W/m 12,9 km/h (3 Bft) 100,00 %
04.10.2019 05:06 9,5 C 8,9 C 0,0 C 92 % 1010,3 hPa 0,0 l/m 0 min 0 min 0 W/m 12,9 km/h (3 Bft) 100,00 %
04.10.2019 05:08 9,5 C 8,9 C 0,0 C 92 % 1010,2 hPa 0,0 l/m 0 min 0 min 0 W/m 16,1 km/h (3 Bft) 100,00 %
04.10.2019 05:10 9,5 C 8,9 C 0,0 C 92 % 1010,1 hPa 0,0 l/m 0 min 0 min 0 W/m 16,1 km/h (3 Bft) 100,00 %
04.10.2019 05:12 9,5 C 8,9 C 0,0 C 92 % 1010,1 hPa 0,0 l/m 0 min 0 min 0 W/m 12,9 km/h (3 Bft) 100,00 %
04.10.2019 05:14 9,5 C 8,9 C 0,0 C 92 % 1010,1 hPa 0,0 l/m 0 min 0 min 0 W/m 16,1 km/h (3 Bft) 97,87 %
04.10.2019 05:16 9,5 C 8,9 C 0,0 C 92 % 1010,1 hPa 0,0 l/m 0 min 0 min 0 W/m 19,3 km/h (3 Bft) 100,00 %
04.10.2019 05:18 9,5 C 8,9 C 0,0 C 92 % 1010,1 hPa 0,0 l/m 0 min 0 min 0 W/m 12,9 km/h (3 Bft) 100,00 %
04.10.2019 05:20 9,5 C 8,9 C 0,0 C 91 % 1010,1 hPa 0,0 l/m 0 min 0 min 0 W/m 16,1 km/h (3 Bft) 97,83 %
04.10.2019 05:22 9,5 C 8,9 C 0,0 C 91 % 1010,2 hPa 0,0 l/m 0 min 0 min 0 W/m 19,3 km/h (3 Bft) 97,87 %
04.10.2019 05:24 9,5 C 8,9 C 0,0 C 91 % 1010,2 hPa 0,0 l/m 0 min 0 min 0 W/m 12,9 km/h (3 Bft) 100,00 %
04.10.2019 05:26 9,5 C 8,9 C 0,0 C 91 % 1010,1 hPa 0,0 l/m 0 min 0 min 0 W/m 12,9 km/h (3 Bft) 95,74 %
04.10.2019 05:28 9,5 C 8,9 C 0,0 C 91 % 1010,1 hPa 0,0 l/m 0 min 0 min 0 W/m 16,1 km/h (3 Bft) 95,74 %
04.10.2019 05:30 9,5 C 8,9 C 0,0 C 91 % 1010,1 hPa 0,0 l/m 0 min 0 min 0 W/m 16,1 km/h (3 Bft) 97,87 %
04.10.2019 05:32 9,5 C 8,9 C 0,0 C 91 % 1010,2 hPa 0,0 l/m 0 min 0 min 0 W/m 12,9 km/h (3 Bft) 97,83 %
04.10.2019 05:34 9,5 C 8,9 C 0,0 C 91 % 1010,1 hPa 0,0 l/m 0 min 0 min 0 W/m 6,4 km/h (2 Bft) 93,62 %
04.10.2019 05:36 9,5 C 8,9 C 0,0 C 91 % 1010,1 hPa 0,0 l/m 0 min 0 min 0 W/m 6,4 km/h (2 Bft) 95,74 %
04.10.2019 05:38 9,5 C 8,9 C 0,0 C 91 % 1010,1 hPa 0,0 l/m 0 min 0 min 0 W/m 12,9 km/h (3 Bft) 97,14 %
04.10.2019 05:40 9,5 C 8,9 C 0,0 C 90 % 1010,0 hPa 0,0 l/m 0 min 0 min 0 W/m 12,9 km/h (3 Bft) 91,49 %
04.10.2019 05:42 9,6 C 8,9 C 0,0 C 90 % 1010,0 hPa 0,0 l/m 0 min 0 min 0 W/m 6,4 km/h (2 Bft) 95,74 %
04.10.2019 05:44 9,6 C 8,9 C 0,0 C 90 % 1009,9 hPa 0,0 l/m 0 min 0 min 0 W/m 19,3 km/h (3 Bft) 93,62 %
04.10.2019 05:46 9,6 C 8,9 C 0,0 C 90 % 1009,9 hPa 0,0 l/m 0 min 0 min 0 W/m 16,1 km/h (3 Bft) 95,74 %
04.10.2019 05:48 9,6 C 8,9 C 0,0 C 90 % 1009,7 hPa 0,0 l/m 0 min 0 min 0 W/m 6,4 km/h (2 Bft) 95,65 %
04.10.2019 05:50 9,6 C 8,9 C 0,0 C 90 % 1009,6 hPa 0,0 l/m 0 min 0 min 0 W/m 12,9 km/h (3 Bft) 95,74 %
04.10.2019 05:52 9,6 C 8,9 C 0,0 C 90 % 1009,7 hPa 0,0 l/m 0 min 0 min 0 W/m 12,9 km/h (3 Bft) 95,74 %
04.10.2019 05:54 9,6 C 8,9 C 0,0 C 90 % 1009,7 hPa 0,0 l/m 0 min 0 min 0 W/m 19,3 km/h (3 Bft) 93,62 %
04.10.2019 05:56 9,6 C 8,9 C 0,0 C 90 % 1009,7 hPa 0,0 l/m 0 min 0 min 0 W/m 19,3 km/h (3 Bft) 95,74 %
04.10.2019 05:58 9,6 C 8,9 C 0,0 C 90 % 1009,5 hPa 0,0 l/m 0 min 0 min 0 W/m 16,1 km/h (3 Bft) 95,74 %
04.10.2019 06:00 9,6 C 8,9 C 0,0 C 90 % 1009,5 hPa 0,0 l/m 0 min 0 min 0 W/m 19,3 km/h (3 Bft) 95,65 %
04.10.2019 06:02 9,6 C 8,9 C 0,0 C 90 % 1009,4 hPa 0,0 l/m 0 min 0 min 0 W/m 12,9 km/h (3 Bft) 93,62 %
04.10.2019 06:04 9,6 C 8,9 C 0,0 C 90 % 1009,4 hPa 0,0 l/m 0 min 0 min 0 W/m 12,9 km/h (3 Bft) 95,74 %
04.10.2019 06:08 9,6 C 8,9 C 0,0 C 90 % 1009,4 hPa 0,0 l/m 0 min 0 min 0 W/m 16,1 km/h (3 Bft) 94,68 %
04.10.2019 06:10 9,6 C 8,9 C 0,0 C 90 % 1009,5 hPa 0,0 l/m 0 min 0 min 0 W/m 19,3 km/h (3 Bft) 93,48 %
04.10.2019 06:12 9,6 C 8,9 C 0,0 C 90 % 1009,4 hPa 0,0 l/m 0 min 0 min 0 W/m 6,4 km/h (2 Bft) 95,74 %
04.10.2019 06:14 9,6 C 8,9 C 0,0 C 90 % 1009,3 hPa 0,0 l/m 0 min 0 min 0 W/m 6,4 km/h (2 Bft) 95,74 %
04.10.2019 06:16 9,6 C 8,9 C 0,0 C 90 % 1009,2 hPa 0,0 l/m 0 min 0 min 0 W/m 12,9 km/h (3 Bft) 95,74 %
04.10.2019 06:18 9,6 C 8,9 C 0,0 C 90 % 1009,1 hPa 0,0 l/m 0 min 0 min 0 W/m 16,1 km/h (3 Bft) 95,74 %
04.10.2019 06:20 9,6 C 8,9 C 0,0 C 90 % 1009,0 hPa 0,0 l/m 0 min 0 min 0 W/m 25,7 km/h (4 Bft) 95,74 %
04.10.2019 06:22 9,6 C 8,9 C 0,0 C 90 % 1009,1 hPa 0,0 l/m 0 min 0 min 0 W/m 19,3 km/h (3 Bft) 95,65 %
04.10.2019 06:24 9,6 C 8,9 C 0,0 C 90 % 1009,1 hPa 0,0 l/m 0 min 0 min 0 W/m 22,5 km/h (4 Bft) 100,00 %
04.10.2019 06:26 9,6 C 8,9 C 0,0 C 90 % 1009,0 hPa 0,0 l/m 0 min 0 min 0 W/m 6,4 km/h (2 Bft) 97,87 %
04.10.2019 06:28 9,6 C 8,9 C 0,0 C 90 % 1009,0 hPa 0,0 l/m 0 min 0 min 0 W/m 12,9 km/h (3 Bft) 95,74 %
04.10.2019 06:30 9,6 C 8,9 C 0,0 C 90 % 1009,0 hPa 0,0 l/m 0 min 0 min 0 W/m 22,5 km/h (4 Bft) 97,87 %
04.10.2019 06:32 9,6 C 8,9 C 0,0 C 90 % 1009,0 hPa 0,0 l/m 0 min 0 min 0 W/m 19,3 km/h (3 Bft) 95,83 %
04.10.2019 06:34 9,7 C 8,9 C 0,0 C 90 % 1009,0 hPa 0,0 l/m 0 min 0 min 0 W/m 19,3 km/h (3 Bft) 95,65 %
04.10.2019 06:36 9,7 C 8,9 C 0,0 C 90 % 1009,0 hPa 0,0 l/m 0 min 0 min 0 W/m 19,3 km/h (3 Bft) 95,83 %
04.10.2019 06:38 9,7 C 8,9 C 0,0 C 90 % 1009,0 hPa 0,0 l/m 0 min 0 min 0 W/m 16,1 km/h (3 Bft) 97,92 %
04.10.2019 06:40 9,7 C 8,9 C 0,0 C 90 % 1008,9 hPa 0,0 l/m 0 min 0 min 0 W/m 22,5 km/h (4 Bft) 97,87 %
04.10.2019 06:42 9,7 C 8,9 C 0,0 C 90 % 1008,9 hPa 0,0 l/m 0 min 0 min 0 W/m 25,7 km/h (4 Bft) 97,92 %
04.10.2019 06:44 9,7 C 8,9 C 0,0 C 90 % 1008,9 hPa 0,0 l/m 0 min 0 min 0 W/m 16,1 km/h (3 Bft) 97,83 %
04.10.2019 06:46 9,7 C 8,9 C 0,0 C 90 % 1008,7 hPa 0,0 l/m 0 min 2 min 0 W/m 12,9 km/h (3 Bft) 95,83 %
04.10.2019 06:48 9,7 C 8,3 C 0,0 C 90 % 1008,4 hPa 0,0 l/m 0 min 2 min 0 W/m 9,7 km/h (2 Bft) 97,87 %
04.10.2019 06:50 9,7 C 8,3 C 0,0 C 90 % 1008,5 hPa 0,0 l/m 0 min 2 min 0 W/m 12,9 km/h (3 Bft) 97,92 %
04.10.2019 06:52 9,7 C 8,3 C 0,0 C 90 % 1008,5 hPa 0,0 l/m 0 min 0 min 0 W/m 22,5 km/h (4 Bft) 97,87 %
04.10.2019 06:54 9,7 C 8,3 C 0,0 C 89 % 1008,6 hPa 0,0 l/m 0 min 0 min 0 W/m 22,5 km/h (4 Bft) 97,87 %
04.10.2019 06:56 9,7 C 8,3 C 0,0 C 89 % 1008,5 hPa 0,0 l/m 0 min 0 min 0 W/m 12,9 km/h (3 Bft) 95,74 %
04.10.2019 06:58 9,7 C 8,3 C 0,0 C 89 % 1008,5 hPa 0,0 l/m 0 min 0 min 0 W/m 22,5 km/h (4 Bft) 95,65 %
04.10.2019 07:00 9,7 C 8,3 C 0,0 C 89 % 1008,5 hPa 0,0 l/m 0 min 0 min 0 W/m 16,1 km/h (3 Bft) 100,00 %
04.10.2019 07:02 9,7 C 8,9 C 0,0 C 89 % 1008,4 hPa 0,0 l/m 0 min 0 min 0 W/m 16,1 km/h (3 Bft) 97,87 %
04.10.2019 07:04 9,7 C 8,9 C 0,0 C 89 % 1008,4 hPa 0,0 l/m 0 min 0 min 0 W/m 16,1 km/h (3 Bft) 91,49 %
04.10.2019 07:06 9,7 C 8,9 C 0,0 C 89 % 1008,3 hPa 0,0 l/m 0 min 0 min 0 W/m 16,1 km/h (3 Bft) 93,62 %
04.10.2019 07:08 9,7 C 8,9 C 0,0 C 89 % 1008,3 hPa 0,0 l/m 0 min 0 min 0 W/m 16,1 km/h (3 Bft) 100,00 %
04.10.2019 07:10 9,7 C 8,9 C 0,0 C 89 % 1008,3 hPa 0,0 l/m 0 min 0 min 0 W/m 16,1 km/h (3 Bft) 100,00 %
04.10.2019 07:12 9,7 C 8,9 C 0,0 C 89 % 1008,2 hPa 0,0 l/m 0 min 0 min 0 W/m 22,5 km/h (4 Bft) 97,83 %
04.10.2019 07:14 9,7 C 8,9 C 0,0 C 89 % 1008,1 hPa 0,0 l/m 0 min 0 min 0 W/m 22,5 km/h (4 Bft) 97,87 %
04.10.2019 07:16 9,7 C 8,9 C 0,0 C 89 % 1008,1 hPa 0,0 l/m 0 min 0 min 0 W/m 12,9 km/h (3 Bft) 100,00 %
04.10.2019 07:18 9,7 C 8,9 C 0,0 C 89 % 1008,1 hPa 0,0 l/m 0 min 0 min 0 W/m 16,1 km/h (3 Bft) 100,00 %
04.10.2019 07:20 9,7 C 8,9 C 0,0 C 89 % 1008,1 hPa 0,0 l/m 0 min 0 min 0 W/m 19,3 km/h (3 Bft) 97,87 %
04.10.2019 07:22 9,7 C 8,9 C 0,0 C 89 % 1008,1 hPa 0,0 l/m 0 min 0 min 0 W/m 16,1 km/h (3 Bft) 100,00 %
04.10.2019 07:24 9,7 C 8,9 C 0,0 C 89 % 1008,1 hPa 0,0 l/m 0 min 0 min 0 W/m 19,3 km/h (3 Bft) 100,00 %
04.10.2019 07:25 9,7 C 8,9 C 20,6 C 89 % 1008,1 hPa 0,0 l/m 0 min 0 min 0 W/m 19,3 km/h (3 Bft) 100,00 %
04.10.2019 07:32 9,7 C 8,9 C 0,0 C 89 % 1007,9 hPa 0,0 l/m 0 min 0 min 0 W/m 19,3 km/h (3 Bft) 99,46 %
04.10.2019 07:36 9,7 C 8,9 C 0,0 C 89 % 1007,9 hPa 0,0 l/m 0 min 4 min 0 W/m 12,9 km/h (3 Bft) 100,00 %
04.10.2019 07:38 9,7 C 8,9 C 0,0 C 89 % 1007,8 hPa 0,0 l/m 0 min 0 min 0 W/m 19,3 km/h (3 Bft) 97,87 %
04.10.2019 07:40 9,7 C 8,9 C 0,0 C 89 % 1007,8 hPa 0,0 l/m 0 min 0 min 0 W/m 12,9 km/h (3 Bft) 100,00 %
04.10.2019 07:42 9,7 C 8,9 C 0,0 C 89 % 1007,7 hPa 0,0 l/m 0 min 0 min 0 W/m 19,3 km/h (3 Bft) 97,83 %
04.10.2019 07:44 9,7 C 8,9 C 0,0 C 89 % 1007,7 hPa 0,0 l/m 0 min 0 min 0 W/m 16,1 km/h (3 Bft) 97,87 %
04.10.2019 07:46 9,7 C 8,9 C 0,0 C 89 % 1007,6 hPa 0,0 l/m 0 min 0 min 0 W/m 12,9 km/h (3 Bft) 100,00 %
04.10.2019 07:48 9,7 C 8,9 C 0,0 C 89 % 1007,6 hPa 0,0 l/m 0 min 0 min 0 W/m 19,3 km/h (3 Bft) 97,87 %
04.10.2019 07:50 9,7 C 9,4 C 0,0 C 89 % 1007,5 hPa 0,0 l/m 0 min 0 min 0 W/m 16,1 km/h (3 Bft) 100,00 %
04.10.2019 07:52 9,7 C 9,4 C 0,0 C 89 % 1007,5 hPa 0,0 l/m 0 min 0 min 5 W/m 19,3 km/h (3 Bft) 100,00 %
04.10.2019 07:54 9,7 C 8,9 C 0,0 C 88 % 1007,4 hPa 0,0 l/m 0 min 0 min 5 W/m 25,7 km/h (4 Bft) 100,00 %
04.10.2019 07:56 9,7 C 9,4 C 0,0 C 88 % 1007,4 hPa 0,0 l/m 0 min 0 min 7 W/m 22,5 km/h (4 Bft) 100,00 %
04.10.2019 07:58 9,7 C 9,4 C 0,0 C 88 % 1007,3 hPa 0,0 l/m 0 min 0 min 8 W/m 16,1 km/h (3 Bft) 95,74 %
04.10.2019 08:00 9,7 C 8,9 C 0,0 C 88 % 1007,4 hPa 0,0 l/m 0 min 0 min 10 W/m 12,9 km/h (3 Bft) 100,00 %
04.10.2019 08:02 9,7 C 9,4 C 0,0 C 88 % 1007,3 hPa 0,0 l/m 0 min 0 min 11 W/m 22,5 km/h (4 Bft) 100,00 %
04.10.2019 08:04 9,7 C 9,4 C 0,0 C 88 % 1007,3 hPa 0,0 l/m 0 min 0 min 11 W/m 16,1 km/h (3 Bft) 100,00 %
04.10.2019 08:06 9,8 C 9,4 C 0,0 C 88 % 1007,3 hPa 0,0 l/m 0 min 0 min 11 W/m 16,1 km/h (3 Bft) 95,65 %
04.10.2019 08:08 9,7 C 9,4 C 0,0 C 88 % 1007,2 hPa 0,0 l/m 0 min 0 min 12 W/m 16,1 km/h (3 Bft) 97,87 %
04.10.2019 08:10 9,8 C 9,4 C 0,0 C 88 % 1007,2 hPa 0,0 l/m 0 min 0 min 12 W/m 19,3 km/h (3 Bft) 100,00 %
04.10.2019 08:12 9,8 C 9,4 C 0,0 C 88 % 1007,1 hPa 0,0 l/m 0 min 0 min 14 W/m 22,5 km/h (4 Bft) 97,87 %
04.10.2019 08:14 9,8 C 9,4 C 0,0 C 88 % 1007,1 hPa 0,0 l/m 0 min 0 min 14 W/m 16,1 km/h (3 Bft) 100,00 %
04.10.2019 08:16 9,8 C 9,4 C 0,0 C 88 % 1007,0 hPa 0,0 l/m 0 min 0 min 14 W/m 16,1 km/h (3 Bft) 95,65 %
04.10.2019 08:18 9,8 C 9,4 C 0,0 C 88 % 1006,9 hPa 0,0 l/m 0 min 0 min 15 W/m 22,5 km/h (4 Bft) 97,87 %
04.10.2019 08:20 9,8 C 9,4 C 0,0 C 88 % 1006,9 hPa 0,0 l/m 0 min 0 min 16 W/m 19,3 km/h (3 Bft) 100,00 %
04.10.2019 08:22 9,8 C 9,4 C 0,0 C 88 % 1006,9 hPa 0,0 l/m 0 min 0 min 17 W/m 12,9 km/h (3 Bft) 100,00 %
04.10.2019 08:24 9,8 C 9,4 C 0,0 C 88 % 1006,9 hPa 0,0 l/m 0 min 0 min 18 W/m 25,7 km/h (4 Bft) 97,87 %
04.10.2019 08:26 9,8 C 9,4 C 0,0 C 88 % 1006,8 hPa 0,0 l/m 0 min 0 min 20 W/m 29,0 km/h (5 Bft) 97,87 %
04.10.2019 08:28 9,8 C 8,9 C 0,0 C 88 % 1006,8 hPa 0,0 l/m 0 min 2 min 24 W/m 22,5 km/h (4 Bft) 97,87 %
04.10.2019 08:30 9,8 C 8,9 C 0,0 C 88 % 1006,8 hPa 0,0 l/m 0 min 2 min 27 W/m 19,3 km/h (3 Bft) 95,65 %
04.10.2019 08:32 9,8 C 8,9 C 0,0 C 88 % 1006,7 hPa 0,0 l/m 0 min 2 min 29 W/m 16,1 km/h (3 Bft) 95,74 %
04.10.2019 08:34 9,8 C 8,3 C 0,0 C 88 % 1006,7 hPa 0,0 l/m 0 min 2 min 32 W/m 19,3 km/h (3 Bft) 97,87 %
04.10.2019 08:36 9,8 C 8,3 C 0,0 C 88 % 1006,6 hPa 0,0 l/m 0 min 2 min 33 W/m 25,7 km/h (4 Bft) 97,87 %
04.10.2019 08:38 9,8 C 8,3 C 0,0 C 88 % 1006,5 hPa 0,0 l/m 0 min 0 min 33 W/m 16,1 km/h (3 Bft) 97,87 %
04.10.2019 08:40 9,8 C 8,3 C 0,0 C 89 % 1006,5 hPa 0,0 l/m 0 min 0 min 33 W/m 16,1 km/h (3 Bft) 97,83 %
04.10.2019 08:42 9,8 C 8,9 C 0,0 C 89 % 1006,5 hPa 0,0 l/m 0 min 0 min 34 W/m 22,5 km/h (4 Bft) 95,74 %
04.10.2019 08:44 9,8 C 8,9 C 0,0 C 89 % 1006,4 hPa 0,0 l/m 0 min 0 min 37 W/m 22,5 km/h (4 Bft) 97,87 %
04.10.2019 08:46 9,8 C 8,9 C 0,0 C 89 % 1006,3 hPa 0,0 l/m 0 min 0 min 37 W/m 16,1 km/h (3 Bft) 97,87 %
04.10.2019 08:48 9,8 C 8,9 C 0,0 C 89 % 1006,4 hPa 0,0 l/m 0 min 0 min 37 W/m 25,7 km/h (4 Bft) 97,87 %
04.10.2019 08:50 9,8 C 8,9 C 0,0 C 89 % 1006,3 hPa 0,0 l/m 0 min 0 min 38 W/m 29,0 km/h (5 Bft) 95,74 %
04.10.2019 08:52 9,8 C 8,9 C 0,0 C 89 % 1006,3 hPa 0,0 l/m 0 min 0 min 40 W/m 22,5 km/h (4 Bft) 97,83 %
04.10.2019 08:54 9,8 C 8,9 C 0,0 C 89 % 1006,2 hPa 0,0 l/m 0 min 0 min 46 W/m 19,3 km/h (3 Bft) 97,87 %
04.10.2019 08:56 9,8 C 8,9 C 0,0 C 89 % 1006,1 hPa 0,0 l/m 0 min 2 min 53 W/m 29,0 km/h (5 Bft) 95,74 %
04.10.2019 08:58 9,8 C 8,9 C 0,0 C 89 % 1006,0 hPa 0,0 l/m 0 min 2 min 58 W/m 29,0 km/h (5 Bft) 95,74 %
04.10.2019 09:00 9,8 C 9,4 C 0,0 C 89 % 1006,0 hPa 0,0 l/m 0 min 0 min 58 W/m 22,5 km/h (4 Bft) 93,62 %
04.10.2019 09:02 9,8 C 9,4 C 0,0 C 89 % 1005,9 hPa 0,0 l/m 0 min 0 min 56 W/m 35,4 km/h (5 Bft) 93,62 %
04.10.2019 09:04 9,8 C 9,4 C 0,0 C 89 % 1005,9 hPa 0,0 l/m 0 min 0 min 53 W/m 22,5 km/h (4 Bft) 86,96 %
04.10.2019 09:06 9,8 C 9,4 C 0,0 C 89 % 1005,8 hPa 0,0 l/m 0 min 0 min 52 W/m 19,3 km/h (3 Bft) 95,74 %
04.10.2019 09:08 9,8 C 9,4 C 0,0 C 89 % 1005,8 hPa 0,0 l/m 0 min 0 min 49 W/m 22,5 km/h (4 Bft) 91,49 %
04.10.2019 09:10 9,8 C 9,4 C 0,0 C 89 % 1005,8 hPa 0,0 l/m 0 min 0 min 46 W/m 22,5 km/h (4 Bft) 93,62 %
04.10.2019 09:12 9,8 C 9,4 C 0,0 C 89 % 1005,8 hPa 0,0 l/m 0 min 0 min 45 W/m 22,5 km/h (4 Bft) 95,74 %
04.10.2019 09:14 9,8 C 9,4 C 0,0 C 89 % 1005,6 hPa 0,0 l/m 0 min 0 min 50 W/m 29,0 km/h (5 Bft) 95,74 %
04.10.2019 09:16 9,9 C 9,4 C 0,0 C 89 % 1005,6 hPa 0,0 l/m 0 min 0 min 55 W/m 22,5 km/h (4 Bft) 93,48 %
04.10.2019 09:18 9,9 C 9,4 C 0,0 C 89 % 1005,5 hPa 0,0 l/m 0 min 0 min 55 W/m 19,3 km/h (3 Bft) 93,62 %
04.10.2019 09:20 9,9 C 9,4 C 0,0 C 89 % 1005,4 hPa 0,0 l/m 0 min 0 min 54 W/m 19,3 km/h (3 Bft) 93,62 %
04.10.2019 09:22 9,9 C 9,4 C 0,0 C 89 % 1005,4 hPa 0,0 l/m 0 min 0 min 54 W/m 22,5 km/h (4 Bft) 93,62 %
04.10.2019 09:24 9,9 C 9,4 C 0,0 C 89 % 1005,4 hPa 0,0 l/m 0 min 0 min 53 W/m 19,3 km/h (3 Bft) 95,74 %
04.10.2019 09:26 10,0 C 9,4 C 0,0 C 89 % 1005,2 hPa 0,0 l/m 0 min 0 min 53 W/m 22,5 km/h (4 Bft) 95,74 %
04.10.2019 09:28 10,0 C 9,4 C 0,0 C 89 % 1005,2 hPa 0,0 l/m 0 min 0 min 53 W/m 22,5 km/h (4 Bft) 95,65 %
04.10.2019 09:30 10,0 C 9,4 C 0,0 C 89 % 1005,3 hPa 0,0 l/m 0 min 0 min 47 W/m 25,7 km/h (4 Bft) 95,74 %
04.10.2019 09:32 10,1 C 9,4 C 0,0 C 89 % 1005,4 hPa 0,0 l/m 0 min 0 min 35 W/m 19,3 km/h (3 Bft) 95,74 %
04.10.2019 09:34 10,1 C 9,4 C 0,0 C 89 % 1005,5 hPa 0,0 l/m 0 min 0 min 28 W/m 22,5 km/h (4 Bft) 95,74 %
04.10.2019 09:36 10,1 C 9,4 C 0,0 C 89 % 1005,6 hPa 0,0 l/m 0 min 0 min 26 W/m 19,3 km/h (3 Bft) 91,49 %
04.10.2019 09:38 10,1 C 8,9 C 0,0 C 89 % 1005,6 hPa 0,0 l/m 0 min 0 min 28 W/m 19,3 km/h (3 Bft) 95,65 %
04.10.2019 09:40 10,1 C 8,9 C 0,0 C 89 % 1005,5 hPa 0,0 l/m 0 min 2 min 31 W/m 25,7 km/h (4 Bft) 93,62 %
04.10.2019 09:42 10,1 C 8,3 C 0,0 C 89 % 1005,3 hPa 0,0 l/m 0 min 2 min 34 W/m 22,5 km/h (4 Bft) 93,62 %
04.10.2019 09:44 10,1 C 8,3 C 0,0 C 90 % 1005,3 hPa 0,0 l/m 0 min 2 min 32 W/m 16,1 km/h (3 Bft) 93,62 %
04.10.2019 09:46 10,1 C 7,8 C 0,0 C 90 % 1005,3 hPa 0,2 l/m 0 min 2 min 27 W/m 12,9 km/h (3 Bft) 95,74 %
04.10.2019 09:48 10,1 C 7,8 C 0,0 C 90 % 1005,3 hPa 0,2 l/m 0 min 2 min 25 W/m 19,3 km/h (3 Bft) 97,87 %
04.10.2019 09:50 10,1 C 7,8 C 0,0 C 90 % 1005,3 hPa 0,2 l/m 0 min 2 min 23 W/m 19,3 km/h (3 Bft) 95,65 %
04.10.2019 09:52 10,1 C 7,8 C 0,0 C 91 % 1005,4 hPa 0,0 l/m 0 min 2 min 19 W/m 19,3 km/h (3 Bft) 100,00 %
04.10.2019 09:54 10,1 C 7,8 C 0,0 C 91 % 1005,3 hPa 0,2 l/m 0 min 2 min 24 W/m 16,1 km/h (3 Bft) 97,87 %
04.10.2019 09:56 10,0 C 7,8 C 0,0 C 91 % 1005,3 hPa 0,2 l/m 0 min 2 min 25 W/m 19,3 km/h (3 Bft) 97,87 %
04.10.2019 09:58 9,9 C 7,8 C 0,0 C 91 % 1005,1 hPa 0,4 l/m 0 min 2 min 33 W/m 16,1 km/h (3 Bft) 100,00 %
04.10.2019 10:00 9,9 C 7,8 C 0,0 C 92 % 1005,2 hPa 0,0 l/m 0 min 2 min 32 W/m 19,3 km/h (3 Bft) 97,87 %
04.10.2019 10:02 9,9 C 7,8 C 0,0 C 92 % 1005,2 hPa 0,2 l/m 0 min 2 min 32 W/m 25,7 km/h (4 Bft) 97,83 %
04.10.2019 10:04 9,8 C 8,3 C 0,0 C 92 % 1005,2 hPa 0,0 l/m 0 min 2 min 32 W/m 16,1 km/h (3 Bft) 100,00 %
04.10.2019 10:06 9,8 C 8,3 C 0,0 C 92 % 1005,1 hPa 0,2 l/m 0 min 2 min 33 W/m 16,1 km/h (3 Bft) 97,87 %
04.10.2019 10:08 9,8 C 8,3 C 0,0 C 93 % 1005,2 hPa 0,2 l/m 0 min 2 min 30 W/m 19,3 km/h (3 Bft) 100,00 %
04.10.2019 10:10 9,8 C 8,3 C 0,0 C 93 % 1005,1 hPa 0,2 l/m 0 min 2 min 27 W/m 19,3 km/h (3 Bft) 97,87 %
04.10.2019 10:12 9,7 C 7,8 C 0,0 C 93 % 1005,1 hPa 0,0 l/m 0 min 2 min 27 W/m 16,1 km/h (3 Bft) 100,00 %
04.10.2019 10:14 9,7 C 7,8 C 0,0 C 94 % 1005,1 hPa 0,0 l/m 0 min 2 min 31 W/m 19,3 km/h (3 Bft) 100,00 %
04.10.2019 10:16 9,7 C 8,3 C 0,0 C 94 % 1005,1 hPa 0,2 l/m 0 min 2 min 25 W/m 16,1 km/h (3 Bft) 100,00 %
04.10.2019 10:18 9,7 C 8,3 C 0,0 C 94 % 1005,1 hPa 0,2 l/m 0 min 2 min 27 W/m 19,3 km/h (3 Bft) 95,74 %
04.10.2019 10:20 9,6 C 8,3 C 0,0 C 94 % 1005,1 hPa 0,0 l/m 0 min 2 min 25 W/m 19,3 km/h (3 Bft) 100,00 %
04.10.2019 10:22 9,6 C 8,3 C 0,0 C 94 % 1005,1 hPa 0,4 l/m 0 min 2 min 25 W/m 16,1 km/h (3 Bft) 100,00 %
04.10.2019 10:24 9,6 C 8,3 C 0,0 C 94 % 1005,0 hPa 0,0 l/m 0 min 2 min 21 W/m 12,9 km/h (3 Bft) 100,00 %
04.10.2019 10:26 9,6 C 8,3 C 0,0 C 95 % 1005,0 hPa 0,2 l/m 0 min 2 min 21 W/m 19,3 km/h (3 Bft) 100,00 %
04.10.2019 10:28 9,6 C 8,3 C 0,0 C 95 % 1004,9 hPa 0,0 l/m 0 min 2 min 22 W/m 22,5 km/h (4 Bft) 100,00 %
04.10.2019 10:30 9,5 C 7,8 C 0,0 C 95 % 1004,8 hPa 0,2 l/m 0 min 2 min 23 W/m 25,7 km/h (4 Bft) 100,00 %
04.10.2019 10:32 9,4 C 7,8 C 0,0 C 95 % 1004,8 hPa 0,0 l/m 0 min 2 min 24 W/m 19,3 km/h (3 Bft) 100,00 %
04.10.2019 10:34 9,4 C 7,8 C 0,0 C 95 % 1004,8 hPa 0,0 l/m 0 min 2 min 21 W/m 22,5 km/h (4 Bft) 100,00 %
04.10.2019 10:36 9,4 C 7,8 C 0,0 C 95 % 1004,8 hPa 0,2 l/m 0 min 2 min 27 W/m 29,0 km/h (5 Bft) 100,00 %
04.10.2019 10:38 9,4 C 7,8 C 0,0 C 95 % 1004,7 hPa 0,0 l/m 0 min 2 min 30 W/m 35,4 km/h (5 Bft) 100,00 %
04.10.2019 10:40 9,3 C 8,3 C 0,0 C 95 % 1004,7 hPa 0,2 l/m 0 min 2 min 39 W/m 29,0 km/h (5 Bft) 100,00 %
04.10.2019 10:42 9,3 C 8,3 C 0,0 C 96 % 1004,6 hPa 0,0 l/m 0 min 2 min 47 W/m 35,4 km/h (5 Bft) 97,87 %
04.10.2019 10:44 9,3 C 8,3 C 0,0 C 95 % 1004,7 hPa 0,0 l/m 0 min 2 min 48 W/m 19,3 km/h (3 Bft) 100,00 %
04.10.2019 10:46 9,3 C 7,8 C 0,0 C 96 % 1004,7 hPa 0,2 l/m 0 min 2 min 50 W/m 38,6 km/h (5 Bft) 100,00 %
04.10.2019 10:48 9,3 C 8,3 C 0,0 C 96 % 1004,7 hPa 0,2 l/m 0 min 2 min 47 W/m 19,3 km/h (3 Bft) 100,00 %
04.10.2019 10:50 9,3 C 8,3 C 0,0 C 96 % 1004,7 hPa 0,0 l/m 0 min 2 min 48 W/m 25,7 km/h (4 Bft) 100,00 %
04.10.2019 10:52 9,3 C 8,3 C 0,0 C 96 % 1004,6 hPa 0,2 l/m 0 min 2 min 47 W/m 16,1 km/h (3 Bft) 100,00 %
04.10.2019 10:54 9,3 C 8,3 C 0,0 C 96 % 1004,6 hPa 0,2 l/m 0 min 2 min 44 W/m 16,1 km/h (3 Bft) 100,00 %
04.10.2019 10:56 9,3 C 8,3 C 0,0 C 96 % 1004,5 hPa 0,0 l/m 0 min 2 min 52 W/m 25,7 km/h (4 Bft) 100,00 %
04.10.2019 10:58 9,3 C 8,3 C 0,0 C 96 % 1004,5 hPa 0,0 l/m 0 min 2 min 49 W/m 16,1 km/h (3 Bft) 100,00 %
04.10.2019 11:00 9,3 C 8,3 C 0,0 C 96 % 1004,5 hPa 0,4 l/m 0 min 2 min 52 W/m 19,3 km/h (3 Bft) 97,83 %
04.10.2019 11:02 9,3 C 8,3 C 0,0 C 96 % 1004,5 hPa 0,0 l/m 0 min 2 min 48 W/m 22,5 km/h (4 Bft) 97,87 %
04.10.2019 11:04 9,3 C 8,3 C 0,0 C 97 % 1004,4 hPa 0,2 l/m 0 min 2 min 45 W/m 22,5 km/h (4 Bft) 97,87 %
04.10.2019 11:06 9,3 C 8,3 C 0,0 C 97 % 1004,3 hPa 0,2 l/m 0 min 2 min 43 W/m 22,5 km/h (4 Bft) 100,00 %
04.10.2019 11:08 9,3 C 8,3 C 0,0 C 97 % 1004,3 hPa 0,0 l/m 0 min 2 min 41 W/m 19,3 km/h (3 Bft) 97,87 %
04.10.2019 11:10 9,3 C 8,3 C 0,0 C 97 % 1004,3 hPa 0,0 l/m 0 min 2 min 38 W/m 29,0 km/h (5 Bft) 97,87 %
04.10.2019 11:12 9,3 C 8,3 C 0,0 C 97 % 1004,3 hPa 0,0 l/m 0 min 2 min 32 W/m 22,5 km/h (4 Bft) 97,83 %
04.10.2019 11:14 9,3 C 8,3 C 0,0 C 97 % 1004,3 hPa 0,0 l/m 0 min 2 min 35 W/m 25,7 km/h (4 Bft) 97,87 %
04.10.2019 11:16 9,3 C 8,3 C 0,0 C 97 % 1004,2 hPa 0,2 l/m 0 min 0 min 38 W/m 22,5 km/h (4 Bft) 97,87 %
04.10.2019 11:18 9,3 C 8,3 C 0,0 C 97 % 1004,2 hPa 0,0 l/m 0 min 0 min 45 W/m 16,1 km/h (3 Bft) 97,87 %
04.10.2019 11:20 9,3 C 8,3 C 0,0 C 97 % 1004,2 hPa 0,0 l/m 0 min 0 min 44 W/m 25,7 km/h (4 Bft) 97,87 %
04.10.2019 11:22 9,3 C 8,3 C 0,0 C 97 % 1004,2 hPa 0,0 l/m 0 min 0 min 40 W/m 38,6 km/h (5 Bft) 97,87 %
04.10.2019 11:24 9,3 C 8,3 C 0,0 C 97 % 1004,2 hPa 0,0 l/m 0 min 2 min 42 W/m 19,3 km/h (3 Bft) 95,65 %
04.10.2019 11:26 9,3 C 8,3 C 0,0 C 97 % 1004,2 hPa 0,0 l/m 0 min 0 min 45 W/m 16,1 km/h (3 Bft) 97,87 %
04.10.2019 11:28 9,3 C 8,3 C 0,0 C 97 % 1004,2 hPa 0,2 l/m 0 min 0 min 47 W/m 35,4 km/h (5 Bft) 97,87 %
04.10.2019 11:30 9,3 C 8,3 C 0,0 C 97 % 1004,1 hPa 0,0 l/m 0 min 0 min 48 W/m 32,2 km/h (5 Bft) 97,87 %
04.10.2019 11:32 9,3 C 8,3 C 0,0 C 97 % 1004,1 hPa 0,0 l/m 0 min 0 min 41 W/m 19,3 km/h (3 Bft) 97,87 %
04.10.2019 11:34 9,3 C 8,3 C 0,0 C 97 % 1004,1 hPa 0,0 l/m 0 min 0 min 37 W/m 22,5 km/h (4 Bft) 97,87 %
04.10.2019 11:36 9,3 C 8,3 C 0,0 C 97 % 1004,1 hPa 0,0 l/m 0 min 0 min 34 W/m 25,7 km/h (4 Bft) 95,65 %
04.10.2019 11:38 9,2 C 8,3 C 0,0 C 97 % 1004,1 hPa 0,0 l/m 0 min 0 min 36 W/m 19,3 km/h (3 Bft) 95,74 %
04.10.2019 11:40 9,2 C 8,3 C 0,0 C 97 % 1004,1 hPa 0,0 l/m 0 min 0 min 37 W/m 25,7 km/h (4 Bft) 97,87 %
04.10.2019 11:42 9,2 C 8,3 C 0,0 C 97 % 1004,1 hPa 0,0 l/m 0 min 2 min 35 W/m 25,7 km/h (4 Bft) 95,74 %
04.10.2019 11:44 9,2 C 8,3 C 0,0 C 97 % 1004,2 hPa 0,2 l/m 0 min 2 min 31 W/m 19,3 km/h (3 Bft) 95,74 %
04.10.2019 11:46 9,2 C 8,3 C 0,0 C 97 % 1004,2 hPa 0,0 l/m 0 min 2 min 32 W/m 19,3 km/h (3 Bft) 93,48 %
04.10.2019 11:48 9,2 C 8,3 C 0,0 C 98 % 1004,1 hPa 0,0 l/m 0 min 0 min 41 W/m 19,3 km/h (3 Bft) 91,49 %
04.10.2019 11:50 9,2 C 8,3 C 0,0 C 98 % 1004,0 hPa 0,0 l/m 0 min 0 min 57 W/m 19,3 km/h (3 Bft) 95,74 %
04.10.2019 11:52 9,2 C 8,3 C 0,0 C 98 % 1004,0 hPa 0,2 l/m 0 min 2 min 68 W/m 25,7 km/h (4 Bft) 95,74 %
04.10.2019 11:54 9,2 C 8,3 C 0,0 C 98 % 1004,0 hPa 0,0 l/m 0 min 2 min 62 W/m 22,5 km/h (4 Bft) 95,74 %
04.10.2019 11:56 9,2 C 8,3 C 0,0 C 98 % 1004,0 hPa 0,0 l/m 0 min 2 min 50 W/m 22,5 km/h (4 Bft) 95,74 %
04.10.2019 11:58 9,2 C 8,3 C 0,0 C 98 % 1004,0 hPa 0,0 l/m 0 min 0 min 43 W/m 19,3 km/h (3 Bft) 95,65 %
04.10.2019 12:00 9,2 C 8,3 C 0,0 C 98 % 1003,9 hPa 0,2 l/m 0 min 0 min 33 W/m 19,3 km/h (3 Bft) 97,87 %
04.10.2019 12:02 9,3 C 8,3 C 0,0 C 98 % 1004,0 hPa 0,0 l/m 0 min 0 min 26 W/m 19,3 km/h (3 Bft) 95,74 %
04.10.2019 12:04 9,3 C 8,3 C 0,0 C 98 % 1004,0 hPa 0,0 l/m 0 min 0 min 32 W/m 25,7 km/h (4 Bft) 97,87 %
04.10.2019 12:08 9,3 C 8,3 C 0,0 C 98 % 1003,9 hPa 0,0 l/m 0 min 0 min 39 W/m 22,5 km/h (4 Bft) 98,94 %
04.10.2019 12:10 9,3 C 8,3 C 0,0 C 98 % 1003,9 hPa 0,0 l/m 0 min 0 min 29 W/m 22,5 km/h (4 Bft) 97,83 %
04.10.2019 12:12 9,3 C 8,3 C 0,0 C 98 % 1003,8 hPa 0,0 l/m 0 min 0 min 25 W/m 29,0 km/h (5 Bft) 97,87 %
04.10.2019 12:14 9,3 C 8,3 C 0,0 C 98 % 1003,9 hPa 0,0 l/m 0 min 0 min 22 W/m 22,5 km/h (4 Bft) 97,87 %
04.10.2019 12:16 9,3 C 8,3 C 0,0 C 98 % 1003,9 hPa 0,0 l/m 0 min 0 min 24 W/m 12,9 km/h (3 Bft) 95,74 %
04.10.2019 12:18 9,4 C 8,3 C 0,0 C 98 % 1003,8 hPa 0,0 l/m 0 min 0 min 25 W/m 19,3 km/h (3 Bft) 97,87 %
04.10.2019 12:20 9,4 C 8,3 C 0,0 C 98 % 1003,8 hPa 0,0 l/m 0 min 0 min 20 W/m 19,3 km/h (3 Bft) 97,87 %
04.10.2019 12:22 9,4 C 8,3 C 0,0 C 98 % 1003,9 hPa 0,0 l/m 0 min 2 min 20 W/m 12,9 km/h (3 Bft) 95,65 %
04.10.2019 12:24 9,4 C 8,3 C 0,0 C 98 % 1003,8 hPa 0,0 l/m 0 min 2 min 17 W/m 16,1 km/h (3 Bft) 95,74 %
04.10.2019 12:26 9,4 C 8,9 C 0,0 C 98 % 1003,8 hPa 0,0 l/m 0 min 2 min 19 W/m 16,1 km/h (3 Bft) 95,74 %
04.10.2019 12:28 9,4 C 8,9 C 0,0 C 98 % 1003,8 hPa 0,0 l/m 0 min 2 min 22 W/m 12,9 km/h (3 Bft) 97,87 %
04.10.2019 12:30 9,4 C 8,9 C 0,0 C 98 % 1003,8 hPa 0,0 l/m 0 min 2 min 25 W/m 19,3 km/h (3 Bft) 95,74 %
04.10.2019 12:32 9,5 C 8,9 C 0,0 C 98 % 1003,8 hPa 0,0 l/m 0 min 2 min 22 W/m 12,9 km/h (3 Bft) 97,87 %
04.10.2019 12:34 9,5 C 8,9 C 0,0 C 98 % 1003,8 hPa 0,0 l/m 0 min 2 min 23 W/m 12,9 km/h (3 Bft) 97,83 %
04.10.2019 12:36 9,6 C 8,9 C 0,0 C 98 % 1003,8 hPa 0,0 l/m 0 min 0 min 33 W/m 3,2 km/h (1 Bft) 97,87 %
04.10.2019 12:38 9,6 C 8,9 C 0,0 C 99 % 1003,8 hPa 0,0 l/m 0 min 0 min 31 W/m 6,4 km/h (2 Bft) 97,87 %
04.10.2019 12:40 9,6 C 8,9 C 0,0 C 99 % 1003,7 hPa 0,0 l/m 0 min 0 min 28 W/m 16,1 km/h (3 Bft) 97,87 %
04.10.2019 12:42 9,6 C 8,9 C 0,0 C 99 % 1003,7 hPa 0,0 l/m 0 min 0 min 28 W/m 12,9 km/h (3 Bft) 97,87 %
04.10.2019 12:44 9,7 C 8,9 C 0,0 C 99 % 1003,7 hPa 0,0 l/m 0 min 0 min 29 W/m 16,1 km/h (3 Bft) 97,83 %
04.10.2019 12:46 9,7 C 8,9 C 0,0 C 99 % 1003,7 hPa 0,0 l/m 0 min 0 min 30 W/m 6,4 km/h (2 Bft) 97,87 %
04.10.2019 12:48 9,7 C 8,9 C 0,0 C 99 % 1003,7 hPa 0,0 l/m 0 min 0 min 26 W/m 16,1 km/h (3 Bft) 97,87 %
04.10.2019 12:50 9,7 C 8,9 C 0,0 C 99 % 1003,7 hPa 0,0 l/m 0 min 0 min 23 W/m 12,9 km/h (3 Bft) 97,87 %
04.10.2019 12:52 9,8 C 9,4 C 0,0 C 99 % 1003,8 hPa 0,0 l/m 0 min 0 min 23 W/m 16,1 km/h (3 Bft) 93,62 %
04.10.2019 12:54 9,8 C 9,4 C 0,0 C 99 % 1003,6 hPa 0,0 l/m 0 min 0 min 53 W/m 16,1 km/h (3 Bft) 97,87 %
04.10.2019 12:56 9,8 C 9,4 C 0,0 C 99 % 1003,7 hPa 0,0 l/m 0 min 0 min 109 W/m 12,9 km/h (3 Bft) 97,83 %
04.10.2019 12:58 9,9 C 9,4 C 0,0 C 99 % 1003,6 hPa 0,0 l/m 0 min 0 min 75 W/m 12,9 km/h (3 Bft) 97,87 %
04.10.2019 13:00 9,9 C 10,0 C 0,0 C 99 % 1003,6 hPa 0,0 l/m 0 min 0 min 111 W/m 12,9 km/h (3 Bft) 97,87 %
04.10.2019 13:02 10,0 C 10,0 C 0,0 C 99 % 1003,6 hPa 0,0 l/m 0 min 0 min 118 W/m 16,1 km/h (3 Bft) 87,23 %
04.10.2019 13:04 10,1 C 10,0 C 0,0 C 99 % 1003,7 hPa 0,0 l/m 0 min 0 min 91 W/m 16,1 km/h (3 Bft) 63,83 %
04.10.2019 13:06 10,1 C 10,0 C 0,0 C 99 % 1003,6 hPa 0,0 l/m 0 min 0 min 92 W/m 16,1 km/h (3 Bft) 97,87 %
04.10.2019 13:08 10,2 C 10,0 C 0,0 C 99 % 1003,6 hPa 0,0 l/m 0 min 0 min 81 W/m 19,3 km/h (3 Bft) 97,83 %
04.10.2019 13:10 10,2 C 10,0 C 0,0 C 99 % 1003,6 hPa 0,0 l/m 0 min 0 min 102 W/m 16,1 km/h (3 Bft) 97,87 %
04.10.2019 13:12 10,3 C 10,6 C 0,0 C 99 % 1003,5 hPa 0,0 l/m 0 min 0 min 155 W/m 9,7 km/h (2 Bft) 97,87 %
04.10.2019 13:14 10,3 C 10,6 C 0,0 C 99 % 1003,4 hPa 0,0 l/m 0 min 0 min 141 W/m 16,1 km/h (3 Bft) 97,87 %
04.10.2019 13:16 10,4 C 10,6 C 0,0 C 99 % 1003,5 hPa 0,0 l/m 0 min 0 min 116 W/m 16,1 km/h (3 Bft) 95,74 %
04.10.2019 13:18 10,4 C 10,6 C 0,0 C 99 % 1003,4 hPa 0,0 l/m 0 min 0 min 129 W/m 16,1 km/h (3 Bft) 100,00 %
04.10.2019 13:20 10,5 C 10,6 C 0,0 C 99 % 1003,4 hPa 0,0 l/m 0 min 0 min 149 W/m 12,9 km/h (3 Bft) 97,83 %
04.10.2019 13:22 10,6 C 11,1 C 0,0 C 99 % 1003,4 hPa 0,0 l/m 0 min 0 min 161 W/m 16,1 km/h (3 Bft) 100,00 %
04.10.2019 13:24 10,6 C 11,1 C 0,0 C 99 % 1003,4 hPa 0,0 l/m 0 min 0 min 137 W/m 16,1 km/h (3 Bft) 97,87 %
04.10.2019 13:26 10,7 C 11,1 C 0,0 C 99 % 1003,4 hPa 0,0 l/m 0 min 0 min 112 W/m 12,9 km/h (3 Bft) 100,00 %
04.10.2019 13:28 10,7 C 10,6 C 0,0 C 99 % 1003,4 hPa 0,0 l/m 0 min 0 min 96 W/m 12,9 km/h (3 Bft) 100,00 %
04.10.2019 13:30 10,8 C 11,1 C 0,0 C 99 % 1003,4 hPa 0,0 l/m 0 min 0 min 85 W/m 12,9 km/h (3 Bft) 100,00 %
04.10.2019 13:32 10,8 C 11,1 C 0,0 C 99 % 1003,3 hPa 0,0 l/m 0 min 0 min 93 W/m 6,4 km/h (2 Bft) 100,00 %
04.10.2019 13:34 10,9 C 11,1 C 0,0 C 99 % 1003,3 hPa 0,0 l/m 0 min 0 min 110 W/m 6,4 km/h (2 Bft) 97,87 %
04.10.2019 13:36 11,0 C 11,1 C 0,0 C 99 % 1003,3 hPa 0,0 l/m 0 min 0 min 104 W/m 12,9 km/h (3 Bft) 100,00 %
04.10.2019 13:38 11,1 C 11,1 C 0,0 C 99 % 1003,3 hPa 0,0 l/m 0 min 0 min 106 W/m 12,9 km/h (3 Bft) 100,00 %
04.10.2019 13:40 11,1 C 11,7 C 0,0 C 99 % 1003,3 hPa 0,0 l/m 0 min 0 min 110 W/m 3,2 km/h (1 Bft) 100,00 %
04.10.2019 13:42 11,2 C 11,7 C 0,0 C 100 % 1003,3 hPa 0,0 l/m 0 min 0 min 118 W/m 3,2 km/h (1 Bft) 100,00 %
04.10.2019 13:44 11,2 C 11,7 C 0,0 C 100 % 1003,3 hPa 0,0 l/m 0 min 0 min 80 W/m 6,4 km/h (2 Bft) 100,00 %
04.10.2019 13:46 11,3 C 11,7 C 0,0 C 100 % 1003,3 hPa 0,0 l/m 0 min 0 min 87 W/m 3,2 km/h (1 Bft) 100,00 %
04.10.2019 13:48 11,3 C 11,7 C 0,0 C 99 % 1003,3 hPa 0,0 l/m 0 min 0 min 103 W/m 12,9 km/h (3 Bft) 95,74 %
04.10.2019 13:50 11,4 C 12,2 C 0,0 C 100 % 1003,2 hPa 0,0 l/m 0 min 0 min 162 W/m 6,4 km/h (2 Bft) 95,74 %
04.10.2019 13:52 11,6 C 12,2 C 0,0 C 100 % 1003,2 hPa 0,0 l/m 0 min 0 min 247 W/m 12,9 km/h (3 Bft) 100,00 %
04.10.2019 13:54 11,7 C 12,8 C 0,0 C 100 % 1003,2 hPa 0,0 l/m 0 min 0 min 264 W/m 19,3 km/h (3 Bft) 97,83 %
04.10.2019 13:56 11,8 C 12,8 C 0,0 C 100 % 1003,2 hPa 0,0 l/m 0 min 0 min 192 W/m 16,1 km/h (3 Bft) 97,87 %
04.10.2019 13:58 11,9 C 12,8 C 0,0 C 100 % 1003,2 hPa 0,0 l/m 0 min 0 min 157 W/m 6,4 km/h (2 Bft) 95,74 %
04.10.2019 14:00 12,1 C 12,8 C 0,0 C 100 % 1003,2 hPa 0,0 l/m 0 min 0 min 171 W/m 6,4 km/h (2 Bft) 100,00 %
04.10.2019 14:02 12,2 C 13,3 C 0,0 C 100 % 1003,1 hPa 0,0 l/m 0 min 0 min 204 W/m 12,9 km/h (3 Bft) 97,87 %
04.10.2019 14:04 12,3 C 13,3 C 0,0 C 100 % 1003,1 hPa 0,0 l/m 0 min 0 min 241 W/m 9,7 km/h (2 Bft) 100,00 %
04.10.2019 14:06 12,5 C 13,3 C 0,0 C 100 % 1003,1 hPa 0,0 l/m 0 min 0 min 215 W/m 16,1 km/h (3 Bft) 95,65 %
04.10.2019 14:08 12,6 C 13,3 C 0,0 C 100 % 1003,2 hPa 0,0 l/m 0 min 0 min 173 W/m 19,3 km/h (3 Bft) 97,87 %
04.10.2019 14:10 12,7 C 12,8 C 0,0 C 100 % 1003,2 hPa 0,0 l/m 0 min 0 min 154 W/m 3,2 km/h (1 Bft) 97,45 %
04.10.2019 14:12 12,7 C 12,8 C 0,0 C 100 % 1003,1 hPa 0,0 l/m 0 min 0 min 148 W/m 12,9 km/h (3 Bft) 95,92 %
04.10.2019 14:15 13,4 C 12,8 C 0,0 C 96 % 1003,2 hPa 0,0 l/m 0 min 0 min 132 W/m 19,3 km/h (3 Bft) 96,49 %
04.10.2019 14:18 13,5 C 12,8 C 0,0 C 96 % 1003,1 hPa 0,0 l/m 0 min 0 min 89 W/m 12,9 km/h (3 Bft) 97,42 %
04.10.2019 14:20 13,5 C 12,8 C 0,0 C 96 % 1003,1 hPa 0,0 l/m 0 min 0 min 84 W/m 19,3 km/h (3 Bft) 93,44 %
04.10.2019 14:22 13,6 C 12,8 C 0,0 C 96 % 1003,1 hPa 0,0 l/m 0 min 0 min 85 W/m 12,9 km/h (3 Bft) 93,62 %
04.10.2019 14:24 13,6 C 12,2 C 0,0 C 96 % 1003,1 hPa 0,0 l/m 0 min 0 min 99 W/m 19,3 km/h (3 Bft) 95,74 %
04.10.2019 14:26 13,5 C 12,2 C 0,0 C 96 % 1003,0 hPa 0,0 l/m 0 min 0 min 89 W/m 12,9 km/h (3 Bft) 95,65 %
04.10.2019 14:28 13,5 C 12,2 C 0,0 C 96 % 1003,1 hPa 0,0 l/m 0 min 0 min 101 W/m 16,1 km/h (3 Bft) 95,74 %
04.10.2019 14:30 13,5 C 12,2 C 0,0 C 96 % 1003,1 hPa 0,0 l/m 0 min 0 min 86 W/m 19,3 km/h (3 Bft) 95,74 %
04.10.2019 14:32 13,5 C 12,2 C 0,0 C 96 % 1003,1 hPa 0,0 l/m 0 min 0 min 83 W/m 6,4 km/h (2 Bft) 95,74 %
04.10.2019 14:34 13,6 C 12,8 C 0,0 C 96 % 1003,1 hPa 0,0 l/m 0 min 0 min 109 W/m 16,1 km/h (3 Bft) 93,62 %
04.10.2019 14:36 12,8 C 12,8 C 0,0 C 100 % 1003,1 hPa 0,0 l/m 0 min 0 min 140 W/m 19,3 km/h (3 Bft) 89,47 %
04.10.2019 14:38 12,8 C 13,3 C 0,0 C 100 % 1003,1 hPa 0,0 l/m 0 min 0 min 218 W/m 12,9 km/h (3 Bft) 93,02 %
04.10.2019 14:40 12,9 C 13,3 C 0,0 C 100 % 1003,1 hPa 0,0 l/m 2 min 0 min 266 W/m 19,3 km/h (3 Bft) 95,74 %
04.10.2019 14:42 12,9 C 13,9 C 0,0 C 100 % 1003,1 hPa 0,0 l/m 0 min 0 min 244 W/m 9,7 km/h (2 Bft) 95,74 %
04.10.2019 14:44 12,9 C 13,3 C 0,0 C 100 % 1003,1 hPa 0,0 l/m 0 min 0 min 179 W/m 9,7 km/h (2 Bft) 95,74 %
04.10.2019 14:46 13,0 C 13,3 C 0,0 C 100 % 1003,1 hPa 0,0 l/m 0 min 0 min 137 W/m 19,3 km/h (3 Bft) 95,74 %
04.10.2019 14:48 13,0 C 12,8 C 0,0 C 100 % 1003,2 hPa 0,0 l/m 0 min 0 min 154 W/m 22,5 km/h (4 Bft) 95,74 %
04.10.2019 14:50 13,0 C 12,8 C 0,0 C 100 % 1003,1 hPa 0,0 l/m 0 min 0 min 146 W/m 12,9 km/h (3 Bft) 95,65 %
04.10.2019 14:52 13,1 C 13,3 C 0,0 C 100 % 1003,1 hPa 0,0 l/m 0 min 0 min 152 W/m 12,9 km/h (3 Bft) 95,74 %
04.10.2019 14:54 13,1 C 13,3 C 0,0 C 100 % 1003,0 hPa 0,0 l/m 0 min 0 min 196 W/m 16,1 km/h (3 Bft) 95,74 %
04.10.2019 14:56 13,1 C 13,3 C 0,0 C 100 % 1003,0 hPa 0,0 l/m 0 min 0 min 152 W/m 22,5 km/h (4 Bft) 97,87 %
04.10.2019 14:58 13,1 C 13,3 C 0,0 C 100 % 1003,1 hPa 0,0 l/m 0 min 0 min 114 W/m 6,4 km/h (2 Bft) 95,74 %
04.10.2019 15:00 13,1 C 12,8 C 0,0 C 100 % 1003,1 hPa 0,0 l/m 0 min 0 min 98 W/m 16,1 km/h (3 Bft) 97,83 %
04.10.2019 15:02 13,1 C 12,8 C 0,0 C 100 % 1003,0 hPa 0,0 l/m 0 min 0 min 117 W/m 12,9 km/h (3 Bft) 97,87 %
04.10.2019 15:04 13,1 C 12,8 C 0,0 C 99 % 1003,0 hPa 0,0 l/m 0 min 0 min 160 W/m 12,9 km/h (3 Bft) 97,87 %
04.10.2019 15:06 13,2 C 12,8 C 0,0 C 99 % 1003,1 hPa 0,0 l/m 0 min 0 min 124 W/m 16,1 km/h (3 Bft) 97,87 %
04.10.2019 15:08 13,2 C 12,8 C 0,0 C 99 % 1003,0 hPa 0,0 l/m 0 min 0 min 113 W/m 19,3 km/h (3 Bft) 97,87 %
04.10.2019 15:10 13,2 C 12,8 C 0,0 C 99 % 1003,0 hPa 0,0 l/m 0 min 0 min 98 W/m 22,5 km/h (4 Bft) 97,87 %
04.10.2019 15:12 13,2 C 12,8 C 0,0 C 99 % 1003,0 hPa 0,0 l/m 0 min 0 min 78 W/m 19,3 km/h (3 Bft) 100,00 %
04.10.2019 15:14 13,2 C 12,8 C 0,0 C 99 % 1003,0 hPa 0,0 l/m 0 min 0 min 73 W/m 22,5 km/h (4 Bft) 100,00 %
04.10.2019 15:16 13,2 C 12,8 C 0,0 C 99 % 1003,0 hPa 0,0 l/m 0 min 0 min 78 W/m 12,9 km/h (3 Bft) 100,00 %
04.10.2019 15:18 13,2 C 12,8 C 0,0 C 99 % 1003,0 hPa 0,0 l/m 0 min 0 min 78 W/m 12,9 km/h (3 Bft) 97,87 %
04.10.2019 15:20 13,2 C 12,8 C 0,0 C 99 % 1003,0 hPa 0,0 l/m 0 min 0 min 94 W/m 12,9 km/h (3 Bft) 91,49 %
04.10.2019 15:22 13,2 C 12,8 C 0,0 C 99 % 1003,0 hPa 0,0 l/m 0 min 0 min 92 W/m 19,3 km/h (3 Bft) 97,87 %
04.10.2019 15:24 13,2 C 13,3 C 0,0 C 99 % 1003,0 hPa 0,0 l/m 0 min 0 min 83 W/m 22,5 km/h (4 Bft) 97,83 %
04.10.2019 15:26 13,2 C 13,3 C 0,0 C 99 % 1003,1 hPa 0,0 l/m 0 min 0 min 93 W/m 16,1 km/h (3 Bft) 97,87 %
04.10.2019 15:28 13,2 C 13,3 C 0,0 C 99 % 1003,1 hPa 0,0 l/m 0 min 0 min 94 W/m 19,3 km/h (3 Bft) 97,87 %
04.10.2019 15:30 13,2 C 13,3 C 0,0 C 98 % 1003,1 hPa 0,0 l/m 0 min 2 min 70 W/m 12,9 km/h (3 Bft) 97,87 %
04.10.2019 15:32 13,2 C 12,8 C 0,0 C 98 % 1003,1 hPa 0,0 l/m 0 min 2 min 71 W/m 19,3 km/h (3 Bft) 97,87 %
04.10.2019 15:34 13,2 C 12,8 C 0,0 C 98 % 1003,1 hPa 0,0 l/m 0 min 2 min 82 W/m 12,9 km/h (3 Bft) 97,87 %
04.10.2019 15:36 13,2 C 12,8 C 0,0 C 98 % 1003,1 hPa 0,0 l/m 0 min 2 min 73 W/m 12,9 km/h (3 Bft) 93,48 %
04.10.2019 15:38 13,3 C 12,8 C 0,0 C 98 % 1003,1 hPa 0,0 l/m 0 min 2 min 67 W/m 6,4 km/h (2 Bft) 97,87 %
04.10.2019 15:40 13,3 C 12,8 C 0,0 C 98 % 1003,1 hPa 0,0 l/m 0 min 2 min 75 W/m 12,9 km/h (3 Bft) 97,87 %
04.10.2019 15:42 13,3 C 12,8 C 0,0 C 98 % 1003,1 hPa 0,0 l/m 0 min 0 min 93 W/m 16,1 km/h (3 Bft) 97,87 %
04.10.2019 15:44 13,3 C 12,8 C 0,0 C 98 % 1003,1 hPa 0,0 l/m 0 min 0 min 86 W/m 16,1 km/h (3 Bft) 97,87 %
04.10.2019 15:46 13,3 C 12,8 C 0,0 C 98 % 1003,1 hPa 0,0 l/m 0 min 0 min 84 W/m 16,1 km/h (3 Bft) 97,87 %
04.10.2019 15:48 13,3 C 12,8 C 0,0 C 97 % 1003,0 hPa 0,0 l/m 0 min 0 min 70 W/m 16,1 km/h (3 Bft) 97,83 %
04.10.2019 15:50 13,3 C 12,8 C 0,0 C 97 % 1003,2 hPa 0,0 l/m 0 min 0 min 82 W/m 12,9 km/h (3 Bft) 97,87 %
04.10.2019 15:52 13,3 C 12,8 C 0,0 C 97 % 1003,1 hPa 0,0 l/m 0 min 2 min 87 W/m 12,9 km/h (3 Bft) 97,87 %
04.10.2019 15:54 13,3 C 12,8 C 0,0 C 97 % 1003,1 hPa 0,0 l/m 0 min 0 min 111 W/m 12,9 km/h (3 Bft) 95,74 %
04.10.2019 15:56 13,3 C 12,8 C 0,0 C 97 % 1003,1 hPa 0,0 l/m 0 min 0 min 137 W/m 9,7 km/h (2 Bft) 97,87 %
04.10.2019 15:58 13,3 C 12,8 C 0,0 C 97 % 1003,1 hPa 0,0 l/m 0 min 0 min 138 W/m 9,7 km/h (2 Bft) 97,87 %
04.10.2019 16:00 13,3 C 12,8 C 0,0 C 97 % 1003,1 hPa 0,0 l/m 0 min 0 min 138 W/m 16,1 km/h (3 Bft) 95,65 %
04.10.2019 16:02 13,3 C 13,3 C 0,0 C 97 % 1003,2 hPa 0,0 l/m 0 min 0 min 144 W/m 12,9 km/h (3 Bft) 97,92 %
04.10.2019 16:04 13,4 C 13,3 C 0,0 C 97 % 1003,2 hPa 0,0 l/m 0 min 0 min 147 W/m 12,9 km/h (3 Bft) 97,87 %
04.10.2019 16:06 13,4 C 13,3 C 0,0 C 97 % 1003,1 hPa 0,0 l/m 0 min 0 min 136 W/m 19,3 km/h (3 Bft) 97,87 %
04.10.2019 16:08 13,4 C 13,3 C 0,0 C 97 % 1003,2 hPa 0,0 l/m 0 min 0 min 123 W/m 16,1 km/h (3 Bft) 97,87 %
04.10.2019 16:10 13,4 C 13,3 C 0,0 C 97 % 1003,1 hPa 0,0 l/m 0 min 0 min 104 W/m 12,9 km/h (3 Bft) 95,65 %
04.10.2019 16:12 13,4 C 13,3 C 0,0 C 97 % 1003,2 hPa 0,0 l/m 0 min 0 min 89 W/m 16,1 km/h (3 Bft) 95,74 %
04.10.2019 16:14 13,4 C 13,3 C 0,0 C 97 % 1003,1 hPa 0,0 l/m 0 min 0 min 95 W/m 12,9 km/h (3 Bft) 100,00 %
04.10.2019 16:16 13,4 C 13,3 C 0,0 C 97 % 1003,1 hPa 0,0 l/m 0 min 0 min 108 W/m 16,1 km/h (3 Bft) 100,00 %
04.10.2019 16:18 13,4 C 13,3 C 0,0 C 97 % 1003,0 hPa 0,0 l/m 0 min 0 min 102 W/m 16,1 km/h (3 Bft) 100,00 %
04.10.2019 16:20 13,4 C 13,3 C 0,0 C 97 % 1003,0 hPa 0,0 l/m 0 min 0 min 97 W/m 19,3 km/h (3 Bft) 95,74 %
04.10.2019 16:22 13,4 C 13,3 C 0,0 C 97 % 1003,0 hPa 0,0 l/m 0 min 0 min 84 W/m 16,1 km/h (3 Bft) 97,83 %
04.10.2019 16:24 13,4 C 13,3 C 0,0 C 97 % 1003,0 hPa 0,0 l/m 0 min 0 min 89 W/m 12,9 km/h (3 Bft) 100,00 %
04.10.2019 16:26 13,4 C 13,3 C 0,0 C 97 % 1003,1 hPa 0,0 l/m 0 min 0 min 91 W/m 22,5 km/h (4 Bft) 97,87 %
04.10.2019 16:28 13,4 C 13,3 C 0,0 C 97 % 1003,1 hPa 0,0 l/m 0 min 0 min 95 W/m 16,1 km/h (3 Bft) 100,00 %
04.10.2019 16:30 13,4 C 13,3 C 0,0 C 96 % 1003,1 hPa 0,0 l/m 0 min 0 min 84 W/m 12,9 km/h (3 Bft) 95,74 %
04.10.2019 16:32 13,4 C 13,3 C 0,0 C 96 % 1003,2 hPa 0,0 l/m 0 min 0 min 113 W/m 6,4 km/h (2 Bft) 54,55 %
04.10.2019 16:34 13,4 C 13,3 C 0,0 C 96 % 1003,1 hPa 0,0 l/m 0 min 0 min 139 W/m 16,1 km/h (3 Bft) 97,83 %
04.10.2019 16:36 13,4 C 13,3 C 0,0 C 96 % 1003,1 hPa 0,0 l/m 0 min 0 min 116 W/m 19,3 km/h (3 Bft) 95,74 %
04.10.2019 16:38 13,4 C 13,9 C 0,0 C 96 % 1003,2 hPa 0,0 l/m 0 min 0 min 126 W/m 12,9 km/h (3 Bft) 97,87 %
04.10.2019 16:40 13,4 C 13,9 C 0,0 C 96 % 1003,2 hPa 0,0 l/m 0 min 0 min 132 W/m 16,1 km/h (3 Bft) 97,87 %
04.10.2019 16:42 13,5 C 13,9 C 0,0 C 96 % 1003,1 hPa 0,0 l/m 0 min 0 min 104 W/m 12,9 km/h (3 Bft) 97,87 %
04.10.2019 16:44 13,5 C 13,3 C 0,0 C 96 % 1003,2 hPa 0,0 l/m 0 min 0 min 97 W/m 16,1 km/h (3 Bft) 97,87 %
04.10.2019 16:46 13,5 C 13,3 C 0,0 C 96 % 1003,1 hPa 0,0 l/m 0 min 0 min 98 W/m 19,3 km/h (3 Bft) 97,83 %
04.10.2019 16:48 13,5 C 13,3 C 0,0 C 96 % 1003,2 hPa 0,0 l/m 0 min 0 min 82 W/m 16,1 km/h (3 Bft) 97,87 %
04.10.2019 16:50 13,6 C 13,3 C 0,0 C 96 % 1003,3 hPa 0,0 l/m 0 min 0 min 79 W/m 9,7 km/h (2 Bft) 97,87 %
04.10.2019 16:52 13,5 C 13,3 C 0,0 C 96 % 1003,2 hPa 0,0 l/m 0 min 0 min 62 W/m 16,1 km/h (3 Bft) 97,87 %
04.10.2019 16:54 13,6 C 13,3 C 0,0 C 96 % 1003,2 hPa 0,0 l/m 0 min 0 min 56 W/m 16,1 km/h (3 Bft) 95,74 %
04.10.2019 16:56 13,6 C 13,3 C 0,0 C 96 % 1003,3 hPa 0,0 l/m 0 min 0 min 52 W/m 16,1 km/h (3 Bft) 95,65 %
04.10.2019 16:58 13,5 C 13,3 C 0,0 C 96 % 1003,3 hPa 0,0 l/m 0 min 0 min 55 W/m 19,3 km/h (3 Bft) 95,74 %
04.10.2019 17:00 13,5 C 12,8 C 0,0 C 96 % 1003,2 hPa 0,0 l/m 0 min 0 min 50 W/m 12,9 km/h (3 Bft) 95,74 %
04.10.2019 17:02 13,5 C 12,8 C 0,0 C 96 % 1003,2 hPa 0,0 l/m 0 min 0 min 45 W/m 16,1 km/h (3 Bft) 97,87 %
04.10.2019 17:04 13,5 C 12,8 C 0,0 C 96 % 1003,1 hPa 0,0 l/m 0 min 0 min 50 W/m 22,5 km/h (4 Bft) 97,87 %
04.10.2019 17:06 13,5 C 13,3 C 0,0 C 96 % 1003,1 hPa 0,0 l/m 0 min 0 min 65 W/m 16,1 km/h (3 Bft) 95,74 %
04.10.2019 17:08 13,5 C 13,3 C 0,0 C 96 % 1003,1 hPa 0,0 l/m 0 min 0 min 69 W/m 16,1 km/h (3 Bft) 95,65 %
04.10.2019 17:10 13,5 C 13,3 C 0,0 C 96 % 1003,2 hPa 0,0 l/m 0 min 0 min 69 W/m 22,5 km/h (4 Bft) 93,62 %
04.10.2019 17:12 13,5 C 13,3 C 0,0 C 96 % 1003,2 hPa 0,0 l/m 0 min 0 min 69 W/m 22,5 km/h (4 Bft) 95,74 %
04.10.2019 17:14 13,5 C 13,3 C 0,0 C 96 % 1003,2 hPa 0,0 l/m 0 min 0 min 68 W/m 12,9 km/h (3 Bft) 97,87 %
04.10.2019 17:16 13,5 C 13,3 C 0,0 C 96 % 1003,2 hPa 0,0 l/m 0 min 0 min 68 W/m 12,9 km/h (3 Bft) 100,00 %
04.10.2019 17:18 13,5 C 13,3 C 0,0 C 96 % 1003,3 hPa 0,0 l/m 0 min 0 min 63 W/m 19,3 km/h (3 Bft) 97,87 %
04.10.2019 17:20 13,5 C 13,3 C 0,0 C 95 % 1003,2 hPa 0,0 l/m 0 min 0 min 65 W/m 12,9 km/h (3 Bft) 97,83 %
04.10.2019 17:22 13,5 C 13,3 C 0,0 C 95 % 1003,2 hPa 0,0 l/m 0 min 0 min 62 W/m 22,5 km/h (4 Bft) 95,74 %
04.10.2019 17:24 13,5 C 12,8 C 0,0 C 95 % 1003,3 hPa 0,0 l/m 0 min 0 min 57 W/m 12,9 km/h (3 Bft) 100,00 %
04.10.2019 17:26 13,5 C 12,8 C 0,0 C 95 % 1003,3 hPa 0,0 l/m 0 min 0 min 49 W/m 12,9 km/h (3 Bft) 95,74 %
04.10.2019 17:28 13,5 C 12,8 C 0,0 C 95 % 1003,3 hPa 0,0 l/m 0 min 0 min 45 W/m 12,9 km/h (3 Bft) 100,00 %
04.10.2019 17:30 13,5 C 12,8 C 0,0 C 95 % 1003,4 hPa 0,0 l/m 0 min 0 min 47 W/m 9,7 km/h (2 Bft) 95,74 %
04.10.2019 17:32 13,5 C 12,8 C 0,0 C 95 % 1003,4 hPa 0,0 l/m 0 min 0 min 41 W/m 12,9 km/h (3 Bft) 95,65 %
04.10.2019 17:34 13,5 C 12,8 C 0,0 C 95 % 1003,4 hPa 0,0 l/m 0 min 0 min 33 W/m 12,9 km/h (3 Bft) 93,62 %
04.10.2019 17:36 13,5 C 12,8 C 0,0 C 95 % 1003,4 hPa 0,0 l/m 0 min 0 min 30 W/m 9,7 km/h (2 Bft) 97,87 %
04.10.2019 17:38 13,5 C 12,8 C 0,0 C 95 % 1003,5 hPa 0,0 l/m 0 min 0 min 26 W/m 16,1 km/h (3 Bft) 97,87 %
04.10.2019 17:40 13,5 C 12,8 C 0,0 C 95 % 1003,5 hPa 0,0 l/m 0 min 0 min 30 W/m 16,1 km/h (3 Bft) 100,00 %
04.10.2019 17:42 13,5 C 12,8 C 0,0 C 95 % 1003,5 hPa 0,0 l/m 0 min 0 min 35 W/m 12,9 km/h (3 Bft) 94,44 %
04.10.2019 17:44 13,5 C 12,8 C 0,0 C 95 % 1003,4 hPa 0,0 l/m 0 min 0 min 35 W/m 16,1 km/h (3 Bft) 97,87 %
04.10.2019 17:46 13,4 C 12,8 C 0,0 C 95 % 1003,4 hPa 0,0 l/m 0 min 0 min 30 W/m 12,9 km/h (3 Bft) 97,87 %
04.10.2019 17:48 13,4 C 12,8 C 0,0 C 95 % 1003,3 hPa 0,0 l/m 0 min 0 min 40 W/m 12,9 km/h (3 Bft) 97,83 %
04.10.2019 17:50 13,4 C 12,8 C 0,0 C 95 % 1003,4 hPa 0,0 l/m 0 min 0 min 43 W/m 19,3 km/h (3 Bft) 93,02 %
04.10.2019 17:52 13,4 C 12,8 C 0,0 C 95 % 1003,3 hPa 0,2 l/m 0 min 0 min 40 W/m 25,7 km/h (4 Bft) 96,00 %
04.10.2019 17:54 13,4 C 12,8 C 0,0 C 95 % 1003,4 hPa 0,0 l/m 0 min 0 min 40 W/m 6,4 km/h (2 Bft) 93,33 %
04.10.2019 17:56 13,4 C 12,8 C 0,0 C 95 % 1003,4 hPa 0,0 l/m 0 min 0 min 40 W/m 6,4 km/h (2 Bft) 100,00 %
04.10.2019 17:57 13,4 C 12,8 C 16,1 C 95 % 1003,4 hPa 0,2 l/m 0 min 0 min 40 W/m 25,7 km/h (4 Bft) 52,63 %
04.10.2019 18:16 13,3 C 12,8 C 0,0 C 94 % 1003,5 hPa 0,0 l/m 0 min 0 min 53 W/m 16,1 km/h (3 Bft) 95,83 %
04.10.2019 18:18 13,4 C 12,8 C 0,0 C 94 % 1003,6 hPa 0,0 l/m 0 min 0 min 52 W/m 9,7 km/h (2 Bft) 97,87 %
04.10.2019 18:20 13,4 C 12,8 C 0,0 C 94 % 1003,7 hPa 0,0 l/m 0 min 0 min 52 W/m 12,9 km/h (3 Bft) 100,00 %
04.10.2019 18:22 13,4 C 12,8 C 0,0 C 94 % 1003,6 hPa 0,0 l/m 0 min 0 min 45 W/m 16,1 km/h (3 Bft) 100,00 %
04.10.2019 18:24 13,4 C 12,8 C 0,0 C 94 % 1003,7 hPa 0,0 l/m 0 min 0 min 41 W/m 25,7 km/h (4 Bft) 100,00 %
04.10.2019 18:26 13,4 C 12,8 C 0,0 C 94 % 1003,7 hPa 0,0 l/m 0 min 0 min 42 W/m 16,1 km/h (3 Bft) 97,87 %
04.10.2019 18:28 13,4 C 12,8 C 0,0 C 94 % 1003,7 hPa 0,0 l/m 0 min 0 min 40 W/m 12,9 km/h (3 Bft) 95,74 %
04.10.2019 18:30 13,4 C 12,8 C 0,0 C 94 % 1003,7 hPa 0,0 l/m 0 min 0 min 34 W/m 12,9 km/h (3 Bft) 95,65 %
04.10.2019 18:32 13,4 C 12,8 C 0,0 C 94 % 1003,7 hPa 0,0 l/m 0 min 0 min 32 W/m 16,1 km/h (3 Bft) 97,87 %
04.10.2019 18:34 13,4 C 12,8 C 0,0 C 94 % 1003,6 hPa 0,0 l/m 0 min 0 min 32 W/m 25,7 km/h (4 Bft) 97,87 %
04.10.2019 18:36 13,4 C 12,8 C 0,0 C 94 % 1003,6 hPa 0,0 l/m 0 min 0 min 27 W/m 12,9 km/h (3 Bft) 97,87 %
04.10.2019 18:38 13,4 C 12,8 C 0,0 C 94 % 1003,7 hPa 0,0 l/m 0 min 0 min 24 W/m 6,4 km/h (2 Bft) 95,74 %
04.10.2019 18:40 13,4 C 12,8 C 0,0 C 94 % 1003,7 hPa 0,0 l/m 0 min 0 min 23 W/m 6,4 km/h (2 Bft) 95,24 %
04.10.2019 18:45 13,4 C 12,8 C 0,0 C 94 % 1003,8 hPa 0,0 l/m 5 min 0 min 23 W/m 25,7 km/h (4 Bft) 86,84 %
04.10.2019 18:48 13,4 C 12,8 C 0,0 C 94 % 1003,8 hPa 0,0 l/m 3 min 0 min 21 W/m 19,3 km/h (3 Bft) 97,62 %
04.10.2019 18:50 13,3 C 12,8 C 0,0 C 93 % 1003,8 hPa 0,0 l/m 0 min 0 min 16 W/m 19,3 km/h (3 Bft) 95,74 %
04.10.2019 18:52 13,3 C 12,8 C 0,0 C 93 % 1003,9 hPa 0,0 l/m 0 min 0 min 15 W/m 12,9 km/h (3 Bft) 98,18 %
04.10.2019 18:56 13,3 C 12,8 C 0,0 C 93 % 1004,0 hPa 0,0 l/m 0 min 0 min 10 W/m 6,4 km/h (2 Bft) 97,96 %
04.10.2019 18:58 13,3 C 12,8 C 0,0 C 93 % 1004,0 hPa 0,0 l/m 0 min 0 min 8 W/m 12,9 km/h (3 Bft) 95,74 %
04.10.2019 19:00 13,3 C 12,2 C 0,0 C 93 % 1004,0 hPa 0,0 l/m 0 min 0 min 8 W/m 9,7 km/h (2 Bft) 97,87 %
04.10.2019 19:02 13,3 C 12,2 C 0,0 C 93 % 1004,0 hPa 0,0 l/m 0 min 0 min 7 W/m 12,9 km/h (3 Bft) 93,62 %
04.10.2019 19:04 13,3 C 12,2 C 0,0 C 93 % 1004,1 hPa 0,0 l/m 0 min 0 min 6 W/m 22,5 km/h (4 Bft) 95,74 %
04.10.2019 19:06 13,3 C 12,2 C 0,0 C 93 % 1004,1 hPa 0,0 l/m 0 min 0 min 2 W/m 16,1 km/h (3 Bft) 95,65 %
04.10.2019 19:08 13,3 C 12,2 C 0,0 C 93 % 1004,1 hPa 0,0 l/m 0 min 0 min 0 W/m 16,1 km/h (3 Bft) 94,59 %
04.10.2019 19:10 13,2 C 12,2 C 0,0 C 93 % 1004,1 hPa 0,0 l/m 0 min 0 min 0 W/m 12,9 km/h (3 Bft) 95,74 %
04.10.2019 19:12 13,2 C 12,2 C 0,0 C 93 % 1004,1 hPa 0,0 l/m 0 min 0 min 0 W/m 12,9 km/h (3 Bft) 97,83 %
04.10.2019 19:14 13,2 C 12,2 C 0,0 C 93 % 1004,1 hPa 0,0 l/m 0 min 0 min 0 W/m 19,3 km/h (3 Bft) 93,62 %
04.10.2019 19:16 13,2 C 12,2 C 0,0 C 93 % 1004,1 hPa 0,0 l/m 0 min 0 min 0 W/m 16,1 km/h (3 Bft) 95,74 %
04.10.2019 19:18 13,2 C 12,2 C 0,0 C 93 % 1004,1 hPa 0,0 l/m 0 min 0 min 0 W/m 12,9 km/h (3 Bft) 97,87 %
04.10.2019 19:20 13,1 C 12,2 C 0,0 C 93 % 1004,2 hPa 0,0 l/m 0 min 0 min 0 W/m 12,9 km/h (3 Bft) 97,87 %
04.10.2019 19:22 13,1 C 12,2 C 0,0 C 93 % 1004,2 hPa 0,0 l/m 0 min 0 min 0 W/m 19,3 km/h (3 Bft) 95,74 %
04.10.2019 19:24 13,1 C 12,2 C 0,0 C 93 % 1004,2 hPa 0,0 l/m 0 min 0 min 0 W/m 19,3 km/h (3 Bft) 97,83 %
04.10.2019 19:26 13,1 C 12,2 C 0,0 C 93 % 1004,2 hPa 0,0 l/m 0 min 0 min 0 W/m 19,3 km/h (3 Bft) 97,87 %
04.10.2019 19:28 13,1 C 12,2 C 0,0 C 93 % 1004,1 hPa 0,0 l/m 0 min 0 min 0 W/m 12,9 km/h (3 Bft) 97,87 %
04.10.2019 19:30 13,0 C 12,2 C 0,0 C 93 % 1004,1 hPa 0,0 l/m 0 min 0 min 0 W/m 19,3 km/h (3 Bft) 97,87 %
04.10.2019 19:32 13,0 C 12,2 C 0,0 C 93 % 1004,1 hPa 0,0 l/m 0 min 0 min 0 W/m 9,7 km/h (2 Bft) 93,62 %
04.10.2019 19:34 13,0 C 11,7 C 0,0 C 93 % 1004,2 hPa 0,0 l/m 0 min 0 min 0 W/m 12,9 km/h (3 Bft) 95,74 %
04.10.2019 19:36 12,9 C 11,7 C 0,0 C 93 % 1004,3 hPa 0,0 l/m 0 min 0 min 0 W/m 16,1 km/h (3 Bft) 97,83 %
04.10.2019 19:38 12,9 C 11,7 C 0,0 C 93 % 1004,3 hPa 0,0 l/m 0 min 0 min 0 W/m 9,7 km/h (2 Bft) 97,87 %
04.10.2019 19:40 12,9 C 11,7 C 0,0 C 93 % 1004,3 hPa 0,0 l/m 0 min 0 min 0 W/m 19,3 km/h (3 Bft) 97,87 %
04.10.2019 19:42 12,9 C 11,7 C 0,0 C 94 % 1004,4 hPa 0,0 l/m 0 min 0 min 0 W/m 9,7 km/h (2 Bft) 97,87 %
04.10.2019 19:44 12,8 C 11,7 C 0,0 C 94 % 1004,4 hPa 0,0 l/m 0 min 0 min 0 W/m 12,9 km/h (3 Bft) 97,87 %
04.10.2019 19:46 12,8 C 11,7 C 0,0 C 94 % 1004,4 hPa 0,0 l/m 0 min 0 min 0 W/m 12,9 km/h (3 Bft) 97,87 %
04.10.2019 19:48 12,8 C 12,2 C 0,0 C 94 % 1004,4 hPa 0,0 l/m 0 min 0 min 0 W/m 16,1 km/h (3 Bft) 100,00 %
04.10.2019 19:50 12,8 C 12,2 C 0,0 C 94 % 1004,4 hPa 0,0 l/m 0 min 0 min 0 W/m 12,9 km/h (3 Bft) 100,00 %
04.10.2019 19:52 12,8 C 12,2 C 0,0 C 94 % 1004,4 hPa 0,0 l/m 0 min 0 min 0 W/m 12,9 km/h (3 Bft) 97,87 %
04.10.2019 19:54 12,8 C 12,2 C 0,0 C 94 % 1004,4 hPa 0,0 l/m 0 min 0 min 0 W/m 9,7 km/h (2 Bft) 95,74 %
04.10.2019 19:56 12,8 C 11,7 C 0,0 C 94 % 1004,4 hPa 0,0 l/m 0 min 0 min 0 W/m 19,3 km/h (3 Bft) 100,00 %
04.10.2019 19:58 12,8 C 11,7 C 0,0 C 94 % 1004,5 hPa 0,0 l/m 0 min 0 min 0 W/m 16,1 km/h (3 Bft) 100,00 %
04.10.2019 20:00 12,8 C 11,7 C 0,0 C 94 % 1004,5 hPa 0,0 l/m 0 min 0 min 0 W/m 16,1 km/h (3 Bft) 100,00 %
04.10.2019 20:02 12,8 C 11,7 C 0,0 C 94 % 1004,5 hPa 0,0 l/m 0 min 0 min 0 W/m 12,9 km/h (3 Bft) 97,87 %
04.10.2019 20:04 12,8 C 11,7 C 0,0 C 94 % 1004,4 hPa 0,0 l/m 0 min 0 min 0 W/m 9,7 km/h (2 Bft) 97,87 %
04.10.2019 20:06 12,7 C 11,7 C 0,0 C 94 % 1004,4 hPa 0,0 l/m 0 min 0 min 0 W/m 12,9 km/h (3 Bft) 100,00 %
04.10.2019 20:08 12,7 C 11,7 C 0,0 C 94 % 1004,4 hPa 0,0 l/m 0 min 0 min 0 W/m 12,9 km/h (3 Bft) 100,00 %
04.10.2019 20:10 12,7 C 11,7 C 0,0 C 94 % 1004,4 hPa 0,0 l/m 0 min 0 min 0 W/m 16,1 km/h (3 Bft) 100,00 %
04.10.2019 20:12 12,7 C 11,7 C 0,0 C 94 % 1004,4 hPa 0,0 l/m 0 min 0 min 0 W/m 12,9 km/h (3 Bft) 100,00 %
04.10.2019 20:14 12,7 C 11,7 C 0,0 C 94 % 1004,4 hPa 0,0 l/m 0 min 0 min 0 W/m 9,7 km/h (2 Bft) 100,00 %
04.10.2019 20:16 12,7 C 11,7 C 0,0 C 94 % 1004,5 hPa 0,0 l/m 0 min 0 min 0 W/m 9,7 km/h (2 Bft) 97,87 %
04.10.2019 20:18 12,6 C 11,7 C 0,0 C 95 % 1004,5 hPa 0,0 l/m 0 min 0 min 0 W/m 16,1 km/h (3 Bft) 100,00 %
04.10.2019 20:20 12,6 C 11,7 C 0,0 C 95 % 1004,4 hPa 0,0 l/m 0 min 0 min 0 W/m 16,1 km/h (3 Bft) 100,00 %
04.10.2019 20:22 12,6 C 11,7 C 0,0 C 95 % 1004,5 hPa 0,0 l/m 0 min 0 min 0 W/m 19,3 km/h (3 Bft) 100,00 %
04.10.2019 20:24 12,6 C 11,7 C 0,0 C 95 % 1004,7 hPa 0,0 l/m 0 min 0 min 0 W/m 19,3 km/h (3 Bft) 100,00 %
04.10.2019 20:26 12,6 C 11,7 C 0,0 C 95 % 1004,6 hPa 0,0 l/m 0 min 0 min 0 W/m 9,7 km/h (2 Bft) 97,87 %
04.10.2019 20:28 12,6 C 11,7 C 0,0 C 95 % 1004,6 hPa 0,0 l/m 0 min 0 min 0 W/m 19,3 km/h (3 Bft) 100,00 %
04.10.2019 20:30 12,6 C 11,7 C 0,0 C 95 % 1004,7 hPa 0,0 l/m 0 min 0 min 0 W/m 9,7 km/h (2 Bft) 97,87 %
04.10.2019 20:32 12,6 C 11,7 C 0,0 C 95 % 1004,7 hPa 0,0 l/m 0 min 0 min 0 W/m 19,3 km/h (3 Bft) 97,87 %
04.10.2019 20:34 12,6 C 11,7 C 0,0 C 95 % 1004,7 hPa 0,0 l/m 0 min 0 min 0 W/m 16,1 km/h (3 Bft) 97,83 %
04.10.2019 20:36 12,6 C 11,7 C 0,0 C 95 % 1004,7 hPa 0,0 l/m 0 min 0 min 0 W/m 22,5 km/h (4 Bft) 97,87 %
04.10.2019 20:38 12,6 C 11,7 C 0,0 C 95 % 1004,7 hPa 0,0 l/m 0 min 0 min 0 W/m 16,1 km/h (3 Bft) 97,87 %
04.10.2019 20:40 12,6 C 11,7 C 0,0 C 95 % 1004,8 hPa 0,0 l/m 0 min 0 min 0 W/m 16,1 km/h (3 Bft) 97,87 %
04.10.2019 20:42 12,6 C 12,2 C 0,0 C 95 % 1004,8 hPa 0,0 l/m 0 min 0 min 0 W/m 22,5 km/h (4 Bft) 97,87 %
04.10.2019 20:44 12,6 C 12,2 C 0,0 C 95 % 1004,8 hPa 0,0 l/m 0 min 0 min 0 W/m 19,3 km/h (3 Bft) 97,87 %
04.10.2019 20:46 12,6 C 12,2 C 0,0 C 95 % 1004,8 hPa 0,0 l/m 0 min 0 min 0 W/m 19,3 km/h (3 Bft) 97,83 %
04.10.2019 20:48 12,6 C 12,2 C 0,0 C 95 % 1004,7 hPa 0,0 l/m 0 min 0 min 0 W/m 25,7 km/h (4 Bft) 97,87 %
04.10.2019 20:50 12,6 C 12,2 C 0,0 C 95 % 1004,8 hPa 0,0 l/m 0 min 0 min 0 W/m 25,7 km/h (4 Bft) 97,87 %
04.10.2019 20:52 12,6 C 12,2 C 0,0 C 95 % 1004,8 hPa 0,0 l/m 0 min 0 min 0 W/m 29,0 km/h (5 Bft) 95,74 %
04.10.2019 20:54 12,6 C 12,2 C 0,0 C 95 % 1004,8 hPa 0,0 l/m 0 min 0 min 0 W/m 19,3 km/h (3 Bft) 97,87 %
04.10.2019 20:56 12,6 C 12,2 C 0,0 C 95 % 1004,9 hPa 0,0 l/m 0 min 0 min 0 W/m 16,1 km/h (3 Bft) 95,74 %
04.10.2019 20:58 12,6 C 12,2 C 0,0 C 95 % 1004,9 hPa 0,0 l/m 0 min 0 min 0 W/m 12,9 km/h (3 Bft) 97,83 %
04.10.2019 21:00 12,6 C 11,7 C 0,0 C 95 % 1005,0 hPa 0,0 l/m 0 min 0 min 0 W/m 16,1 km/h (3 Bft) 95,74 %
04.10.2019 21:02 12,6 C 11,7 C 0,0 C 95 % 1005,0 hPa 0,0 l/m 0 min 0 min 0 W/m 12,9 km/h (3 Bft) 97,87 %
04.10.2019 21:04 12,6 C 11,7 C 0,0 C 95 % 1005,0 hPa 0,0 l/m 0 min 0 min 0 W/m 16,1 km/h (3 Bft) 97,87 %
04.10.2019 21:06 12,6 C 11,7 C 0,0 C 95 % 1005,0 hPa 0,0 l/m 0 min 0 min 0 W/m 12,9 km/h (3 Bft) 97,87 %
04.10.2019 21:08 12,6 C 11,7 C 0,0 C 95 % 1005,0 hPa 0,0 l/m 0 min 0 min 0 W/m 12,9 km/h (3 Bft) 97,83 %
04.10.2019 21:10 12,6 C 11,7 C 0,0 C 95 % 1005,0 hPa 0,0 l/m 0 min 0 min 0 W/m 12,9 km/h (3 Bft) 97,87 %
04.10.2019 21:12 12,6 C 11,7 C 0,0 C 95 % 1005,0 hPa 0,0 l/m 0 min 0 min 0 W/m 16,1 km/h (3 Bft) 97,87 %
04.10.2019 21:14 12,6 C 11,7 C 0,0 C 95 % 1005,0 hPa 0,0 l/m 0 min 0 min 0 W/m 12,9 km/h (3 Bft) 97,87 %
04.10.2019 21:16 12,6 C 11,7 C 0,0 C 95 % 1005,0 hPa 0,0 l/m 0 min 0 min 0 W/m 16,1 km/h (3 Bft) 97,87 %
04.10.2019 21:18 12,6 C 11,7 C 0,0 C 95 % 1005,0 hPa 0,0 l/m 0 min 0 min 0 W/m 16,1 km/h (3 Bft) 95,74 %
04.10.2019 21:20 12,6 C 11,7 C 0,0 C 95 % 1004,9 hPa 0,0 l/m 0 min 0 min 0 W/m 16,1 km/h (3 Bft) 97,83 %
04.10.2019 21:22 12,6 C 11,7 C 0,0 C 95 % 1004,9 hPa 0,0 l/m 0 min 0 min 0 W/m 16,1 km/h (3 Bft) 100,00 %
04.10.2019 21:24 12,6 C 11,7 C 0,0 C 95 % 1005,0 hPa 0,0 l/m 0 min 0 min 0 W/m 16,1 km/h (3 Bft) 97,87 %
04.10.2019 21:26 12,6 C 11,7 C 0,0 C 95 % 1005,0 hPa 0,0 l/m 0 min 0 min 0 W/m 16,1 km/h (3 Bft) 100,00 %
04.10.2019 21:28 12,6 C 11,7 C 0,0 C 95 % 1005,0 hPa 0,0 l/m 0 min 0 min 0 W/m 12,9 km/h (3 Bft) 97,87 %
04.10.2019 21:30 12,6 C 11,7 C 0,0 C 95 % 1005,1 hPa 0,0 l/m 0 min 0 min 0 W/m 22,5 km/h (4 Bft) 100,00 %
04.10.2019 21:32 12,6 C 11,7 C 0,0 C 95 % 1005,1 hPa 0,0 l/m 0 min 0 min 0 W/m 12,9 km/h (3 Bft) 100,00 %
04.10.2019 21:34 12,6 C 11,7 C 0,0 C 95 % 1005,1 hPa 0,0 l/m 0 min 0 min 0 W/m 16,1 km/h (3 Bft) 100,00 %
04.10.2019 21:36 12,5 C 11,7 C 0,0 C 95 % 1005,2 hPa 0,0 l/m 0 min 0 min 0 W/m 16,1 km/h (3 Bft) 97,87 %
04.10.2019 21:38 12,5 C 11,7 C 0,0 C 95 % 1005,2 hPa 0,0 l/m 0 min 0 min 0 W/m 12,9 km/h (3 Bft) 95,74 %
04.10.2019 21:40 12,5 C 11,7 C 0,0 C 95 % 1005,2 hPa 0,0 l/m 0 min 0 min 0 W/m 9,7 km/h (2 Bft) 95,83 %
04.10.2019 21:42 12,5 C 11,7 C 0,0 C 95 % 1005,2 hPa 0,0 l/m 0 min 0 min 0 W/m 16,1 km/h (3 Bft) 93,62 %
04.10.2019 21:44 12,5 C 11,7 C 0,0 C 95 % 1005,2 hPa 0,0 l/m 0 min 0 min 0 W/m 25,7 km/h (4 Bft) 93,62 %
04.10.2019 21:46 12,5 C 11,7 C 0,0 C 95 % 1005,3 hPa 0,0 l/m 0 min 0 min 0 W/m 19,3 km/h (3 Bft) 97,87 %
04.10.2019 21:48 12,5 C 11,7 C 0,0 C 95 % 1005,2 hPa 0,0 l/m 0 min 0 min 0 W/m 22,5 km/h (4 Bft) 93,62 %
04.10.2019 21:50 12,5 C 11,7 C 0,0 C 95 % 1005,3 hPa 0,0 l/m 0 min 0 min 0 W/m 16,1 km/h (3 Bft) 93,62 %
04.10.2019 21:52 12,5 C 11,7 C 0,0 C 95 % 1005,3 hPa 0,0 l/m 0 min 0 min 0 W/m 12,9 km/h (3 Bft) 95,74 %
04.10.2019 21:54 12,5 C 11,7 C 0,0 C 95 % 1005,4 hPa 0,0 l/m 0 min 0 min 0 W/m 12,9 km/h (3 Bft) 95,65 %
04.10.2019 21:56 12,5 C 11,7 C 0,0 C 95 % 1005,4 hPa 0,0 l/m 0 min 0 min 0 W/m 12,9 km/h (3 Bft) 93,62 %
04.10.2019 21:58 12,5 C 11,7 C 0,0 C 95 % 1005,5 hPa 0,0 l/m 0 min 2 min 0 W/m 16,1 km/h (3 Bft) 95,74 %
04.10.2019 22:00 12,5 C 11,7 C 0,0 C 95 % 1005,4 hPa 0,0 l/m 0 min 2 min 0 W/m 12,9 km/h (3 Bft) 95,74 %
04.10.2019 22:02 12,5 C 11,7 C 0,0 C 95 % 1005,4 hPa 0,0 l/m 0 min 0 min 0 W/m 19,3 km/h (3 Bft) 95,74 %
04.10.2019 22:04 12,6 C 11,7 C 0,0 C 95 % 1005,4 hPa 0,0 l/m 0 min 0 min 0 W/m 25,7 km/h (4 Bft) 93,62 %
04.10.2019 22:06 12,6 C 11,7 C 0,0 C 95 % 1005,5 hPa 0,0 l/m 0 min 2 min 0 W/m 22,5 km/h (4 Bft) 93,48 %
04.10.2019 22:08 12,6 C 11,7 C 0,0 C 95 % 1005,5 hPa 0,0 l/m 0 min 0 min 0 W/m 16,1 km/h (3 Bft) 93,62 %
04.10.2019 22:10 12,6 C 11,1 C 0,0 C 95 % 1005,6 hPa 0,0 l/m 0 min 2 min 0 W/m 16,1 km/h (3 Bft) 95,74 %
04.10.2019 22:12 12,6 C 11,1 C 0,0 C 95 % 1005,6 hPa 0,0 l/m 0 min 2 min 0 W/m 6,4 km/h (2 Bft) 97,87 %
04.10.2019 22:14 12,6 C 11,1 C 0,0 C 96 % 1005,6 hPa 0,0 l/m 0 min 2 min 0 W/m 16,1 km/h (3 Bft) 95,74 %
04.10.2019 22:16 12,6 C 11,1 C 0,0 C 96 % 1005,6 hPa 0,0 l/m 0 min 2 min 0 W/m 9,7 km/h (2 Bft) 95,74 %
04.10.2019 22:18 12,6 C 11,1 C 0,0 C 96 % 1005,6 hPa 0,0 l/m 0 min 2 min 0 W/m 12,9 km/h (3 Bft) 95,65 %
04.10.2019 22:20 12,6 C 11,1 C 0,0 C 96 % 1005,6 hPa 0,0 l/m 0 min 2 min 0 W/m 12,9 km/h (3 Bft) 97,87 %
04.10.2019 22:22 12,5 C 11,1 C 0,0 C 96 % 1005,6 hPa 0,0 l/m 0 min 2 min 0 W/m 12,9 km/h (3 Bft) 97,87 %
04.10.2019 22:24 12,5 C 11,1 C 0,0 C 96 % 1005,6 hPa 0,0 l/m 0 min 2 min 0 W/m 6,4 km/h (2 Bft) 97,87 %
04.10.2019 22:26 12,5 C 11,1 C 0,0 C 96 % 1005,7 hPa 0,0 l/m 0 min 2 min 0 W/m 12,9 km/h (3 Bft) 95,74 %
04.10.2019 22:28 12,5 C 11,1 C 0,0 C 96 % 1005,7 hPa 0,0 l/m 0 min 2 min 0 W/m 12,9 km/h (3 Bft) 97,87 %
04.10.2019 22:30 12,4 C 11,1 C 0,0 C 96 % 1005,7 hPa 0,0 l/m 0 min 2 min 0 W/m 6,4 km/h (2 Bft) 97,83 %
04.10.2019 22:32 12,5 C 11,1 C 0,0 C 96 % 1005,7 hPa 0,0 l/m 0 min 2 min 0 W/m 6,4 km/h (2 Bft) 97,87 %
04.10.2019 22:34 12,4 C 11,1 C 0,0 C 96 % 1005,8 hPa 0,0 l/m 0 min 2 min 0 W/m 6,4 km/h (2 Bft) 97,87 %
04.10.2019 22:36 12,4 C 11,1 C 0,0 C 96 % 1005,8 hPa 0,0 l/m 0 min 2 min 0 W/m 6,4 km/h (2 Bft) 95,83 %
04.10.2019 22:38 12,4 C 11,1 C 0,0 C 96 % 1005,8 hPa 0,2 l/m 0 min 2 min 0 W/m 9,7 km/h (2 Bft) 95,74 %
04.10.2019 22:40 12,4 C 11,1 C 0,0 C 96 % 1005,9 hPa 0,2 l/m 0 min 2 min 0 W/m 12,9 km/h (3 Bft) 100,00 %
04.10.2019 22:42 12,4 C 11,1 C 0,0 C 96 % 1005,8 hPa 0,4 l/m 0 min 2 min 0 W/m 6,4 km/h (2 Bft) 100,00 %
04.10.2019 22:44 12,4 C 11,1 C 0,0 C 96 % 1006,0 hPa 0,2 l/m 0 min 2 min 0 W/m 12,9 km/h (3 Bft) 100,00 %
04.10.2019 22:46 12,4 C 11,1 C 0,0 C 96 % 1005,9 hPa 0,2 l/m 0 min 2 min 0 W/m 16,1 km/h (3 Bft) 97,87 %
04.10.2019 22:48 12,4 C 11,1 C 0,0 C 96 % 1005,9 hPa 0,2 l/m 0 min 2 min 0 W/m 6,4 km/h (2 Bft) 100,00 %
04.10.2019 22:50 12,3 C 11,1 C 0,0 C 97 % 1005,9 hPa 0,2 l/m 0 min 2 min 0 W/m 6,4 km/h (2 Bft) 100,00 %
04.10.2019 22:52 12,3 C 11,1 C 0,0 C 97 % 1006,0 hPa 0,0 l/m 0 min 2 min 0 W/m 12,9 km/h (3 Bft) 100,00 %
04.10.2019 22:54 12,3 C 11,1 C 0,0 C 97 % 1006,0 hPa 0,0 l/m 0 min 2 min 0 W/m 9,7 km/h (2 Bft) 100,00 %
04.10.2019 22:56 12,3 C 11,1 C 0,0 C 97 % 1006,1 hPa 0,2 l/m 0 min 2 min 0 W/m 12,9 km/h (3 Bft) 100,00 %
04.10.2019 22:58 12,3 C 11,1 C 0,0 C 97 % 1006,1 hPa 0,0 l/m 0 min 2 min 0 W/m 12,9 km/h (3 Bft) 100,00 %
04.10.2019 23:00 12,3 C 11,1 C 0,0 C 97 % 1006,1 hPa 0,0 l/m 0 min 2 min 0 W/m 12,9 km/h (3 Bft) 100,00 %
04.10.2019 23:02 12,3 C 11,1 C 0,0 C 97 % 1006,1 hPa 0,0 l/m 0 min 0 min 0 W/m 6,4 km/h (2 Bft) 97,87 %
04.10.2019 23:04 12,3 C 11,1 C 0,0 C 97 % 1006,2 hPa 0,0 l/m 0 min 2 min 0 W/m 6,4 km/h (2 Bft) 100,00 %
04.10.2019 23:06 12,3 C 11,1 C 0,0 C 97 % 1006,3 hPa 0,0 l/m 0 min 2 min 0 W/m 6,4 km/h (2 Bft) 100,00 %
04.10.2019 23:08 12,3 C 11,1 C 0,0 C 97 % 1006,4 hPa 0,0 l/m 0 min 0 min 0 W/m 12,9 km/h (3 Bft) 100,00 %
04.10.2019 23:10 12,3 C 11,1 C 0,0 C 97 % 1006,5 hPa 0,0 l/m 0 min 2 min 0 W/m 6,4 km/h (2 Bft) 97,87 %
04.10.2019 23:12 12,2 C 10,6 C 0,0 C 97 % 1006,5 hPa 0,0 l/m 0 min 0 min 0 W/m 6,4 km/h (2 Bft) 100,00 %
04.10.2019 23:14 12,2 C 10,6 C 0,0 C 97 % 1006,5 hPa 0,0 l/m 0 min 0 min 0 W/m 6,4 km/h (2 Bft) 100,00 %
04.10.2019 23:16 12,2 C 10,6 C 0,0 C 97 % 1006,5 hPa 0,0 l/m 0 min 2 min 0 W/m 9,7 km/h (2 Bft) 100,00 %
04.10.2019 23:18 12,1 C 10,6 C 0,0 C 97 % 1006,6 hPa 0,0 l/m 0 min 2 min 0 W/m 12,9 km/h (3 Bft) 100,00 %
04.10.2019 23:20 12,1 C 10,6 C 0,0 C 97 % 1006,6 hPa 0,2 l/m 0 min 2 min 0 W/m 6,4 km/h (2 Bft) 97,87 %
04.10.2019 23:22 12,0 C 10,6 C 0,0 C 97 % 1006,6 hPa 0,0 l/m 0 min 2 min 0 W/m 9,7 km/h (2 Bft) 100,00 %
04.10.2019 23:24 12,0 C 10,6 C 0,0 C 97 % 1006,7 hPa 0,0 l/m 0 min 0 min 0 W/m 6,4 km/h (2 Bft) 100,00 %
04.10.2019 23:26 11,9 C 10,6 C 0,0 C 97 % 1006,7 hPa 0,0 l/m 0 min 0 min 0 W/m 6,4 km/h (2 Bft) 100,00 %
04.10.2019 23:28 11,9 C 10,0 C 0,0 C 97 % 1006,7 hPa 0,0 l/m 0 min 0 min 0 W/m 9,7 km/h (2 Bft) 97,83 %
04.10.2019 23:30 11,8 C 10,0 C 0,0 C 97 % 1006,7 hPa 0,0 l/m 0 min 0 min 0 W/m 6,4 km/h (2 Bft) 97,87 %
04.10.2019 23:32 11,8 C 10,0 C 0,0 C 97 % 1006,7 hPa 0,0 l/m 0 min 0 min 0 W/m 6,4 km/h (2 Bft) 100,00 %
04.10.2019 23:34 11,7 C 10,0 C 0,0 C 97 % 1006,7 hPa 0,0 l/m 0 min 0 min 0 W/m 6,4 km/h (2 Bft) 100,00 %
04.10.2019 23:36 11,6 C 10,0 C 0,0 C 97 % 1006,8 hPa 0,0 l/m 0 min 0 min 0 W/m 16,1 km/h (3 Bft) 100,00 %
04.10.2019 23:38 11,6 C 10,0 C 0,0 C 97 % 1006,9 hPa 0,0 l/m 0 min 2 min 0 W/m 3,2 km/h (1 Bft) 97,87 %
04.10.2019 23:40 11,5 C 10,0 C 0,0 C 97 % 1006,9 hPa 0,0 l/m 0 min 2 min 0 W/m 6,4 km/h (2 Bft) 97,83 %
04.10.2019 23:42 11,4 C 10,0 C 0,0 C 97 % 1006,9 hPa 0,0 l/m 0 min 2 min 0 W/m 6,4 km/h (2 Bft) 97,87 %
04.10.2019 23:44 11,4 C 10,0 C 0,0 C 97 % 1007,0 hPa 0,0 l/m 0 min 0 min 0 W/m 12,9 km/h (3 Bft) 95,74 %
04.10.2019 23:46 11,4 C 10,0 C 0,0 C 97 % 1007,0 hPa 0,0 l/m 0 min 2 min 0 W/m 6,4 km/h (2 Bft) 97,87 %
04.10.2019 23:48 11,3 C 9,4 C 0,0 C 97 % 1007,0 hPa 0,0 l/m 0 min 0 min 0 W/m 9,7 km/h (2 Bft) 95,74 %
04.10.2019 23:50 11,2 C 9,4 C 0,0 C 97 % 1007,1 hPa 0,0 l/m 0 min 0 min 0 W/m 6,4 km/h (2 Bft) 95,74 %
04.10.2019 23:52 11,2 C 9,4 C 0,0 C 97 % 1007,1 hPa 0,0 l/m 0 min 0 min 0 W/m 6,4 km/h (2 Bft) 95,65 %
04.10.2019 23:54 11,1 C 9,4 C 0,0 C 97 % 1007,1 hPa 0,0 l/m 0 min 0 min 0 W/m 19,3 km/h (3 Bft) 97,87 %
04.10.2019 23:56 11,0 C 9,4 C 0,0 C 97 % 1007,2 hPa 0,0 l/m 0 min 0 min 0 W/m 6,4 km/h (2 Bft) 95,74 %
04.10.2019 23:58 10,9 C 9,4 C 0,0 C 97 % 1007,2 hPa 0,0 l/m 0 min 0 min 0 W/m 6,4 km/h (2 Bft) 100,00 %
_ Min-Zeit 11:38 09:46 00:00 07:54 14:26 - - - - 01:10 17:57
Minimum _ 9,2 C 7,8 C 0,0 C 88 % 1003,0 hPa - - - - 0,0 km/h (0 Bft) 52,63 %
_ Max-Zeit 14:22 14:42 07:25 13:42 00:20 09:58 18:45 07:36 14:40 10:46 00:02
Maximum _ 13,6 C 13,9 C 20,6 C 100 % 1014,9 hPa 0,4 l/m 5 min 4 min 266 W/m 38,6 km/h
O-SO (5 Bft)
100,00 %
Durchschnitt _ 11,1 C 10,4 C 0,0 C 94 % 1006,8 hPa #8,8 l/m #10 min. #4:02 h 65 W/m 14,0 km/h (3 Bft) 97,23 %
© 2019 W. Hausmann